<?xml version="1.0" encoding="UTF-8" standalone="no" ?>
<gpx xmlns="http://www.topografix.com/GPX/1/1" xmlns:xsi="http://www.w3.org/2001/XMLSchema-instance" xsi:schemaLocation="http://www.topografix.com/GPX/1/1 http://www.topografix.com/GPX/1/1/gpx.xsd" version="1.1" creator="VisuGPX - https://www.visugpx.com">
  <metadata>
    <name>Dh sur Allevard</name>
    <desc><![CDATA[Du Super Collet à la Chapelle du Bard]]></desc>
  </metadata>
  <trk>
    <name><![CDATA[Untitled]]></name>
    <trkseg>
      <trkpt lat="45.39261" lon="6.12523">
        <ele>1514</ele>
        <time>2011-11-13T09:53:05.000Z</time>
      </trkpt>
      <trkpt lat="45.39261" lon="6.12523">
        <ele>1514</ele>
        <time>2011-11-13T09:53:07.000Z</time>
      </trkpt>
      <trkpt lat="45.39261" lon="6.12523">
        <ele>1514</ele>
        <time>2011-11-13T09:53:10.000Z</time>
      </trkpt>
      <trkpt lat="45.39258" lon="6.12513">
        <ele>1514</ele>
        <time>2011-11-13T09:53:15.000Z</time>
      </trkpt>
      <trkpt lat="45.39247" lon="6.12494">
        <ele>1514</ele>
        <time>2011-11-13T09:53:20.000Z</time>
      </trkpt>
      <trkpt lat="45.39229" lon="6.12475">
        <ele>1514</ele>
        <time>2011-11-13T09:53:27.000Z</time>
      </trkpt>
      <trkpt lat="45.39223" lon="6.12466">
        <ele>1514</ele>
        <time>2011-11-13T09:53:30.000Z</time>
      </trkpt>
      <trkpt lat="45.39221" lon="6.12457">
        <ele>1514</ele>
        <time>2011-11-13T09:53:33.000Z</time>
      </trkpt>
      <trkpt lat="45.39219" lon="6.12452">
        <ele>1513.4000244141</ele>
        <time>2011-11-13T09:53:35.000Z</time>
      </trkpt>
      <trkpt lat="45.39219" lon="6.1245">
        <ele>1513.4000244141</ele>
        <time>2011-11-13T09:53:36.000Z</time>
      </trkpt>
      <trkpt lat="45.39217" lon="6.12445">
        <ele>1513</ele>
        <time>2011-11-13T09:53:39.000Z</time>
      </trkpt>
      <trkpt lat="45.39216" lon="6.12443">
        <ele>1512.8000488281</ele>
        <time>2011-11-13T09:53:41.000Z</time>
      </trkpt>
      <trkpt lat="45.39213" lon="6.12438">
        <ele>1512.4000244141</ele>
        <time>2011-11-13T09:53:49.000Z</time>
      </trkpt>
      <trkpt lat="45.39212" lon="6.12431">
        <ele>1512</ele>
        <time>2011-11-13T09:54:15.000Z</time>
      </trkpt>
      <trkpt lat="45.39211" lon="6.12427">
        <ele>1512</ele>
        <time>2011-11-13T09:54:16.000Z</time>
      </trkpt>
      <trkpt lat="45.39212" lon="6.12416">
        <ele>1512</ele>
        <time>2011-11-13T09:54:18.000Z</time>
      </trkpt>
      <trkpt lat="45.39211" lon="6.12401">
        <ele>1512</ele>
        <time>2011-11-13T09:54:20.000Z</time>
      </trkpt>
      <trkpt lat="45.39202" lon="6.12362">
        <ele>1511.4000244141</ele>
        <time>2011-11-13T09:54:23.000Z</time>
      </trkpt>
      <trkpt lat="45.39199" lon="6.12352">
        <ele>1510.8000488281</ele>
        <time>2011-11-13T09:54:24.000Z</time>
      </trkpt>
      <trkpt lat="45.39192" lon="6.12331">
        <ele>1510</ele>
        <time>2011-11-13T09:54:26.000Z</time>
      </trkpt>
      <trkpt lat="45.3919" lon="6.12319">
        <ele>1509.4000244141</ele>
        <time>2011-11-13T09:54:27.000Z</time>
      </trkpt>
      <trkpt lat="45.39187" lon="6.12309">
        <ele>1508.8000488281</ele>
        <time>2011-11-13T09:54:28.000Z</time>
      </trkpt>
      <trkpt lat="45.39187" lon="6.12277">
        <ele>1507.4000244141</ele>
        <time>2011-11-13T09:54:31.000Z</time>
      </trkpt>
      <trkpt lat="45.39187" lon="6.12266">
        <ele>1507</ele>
        <time>2011-11-13T09:54:32.000Z</time>
      </trkpt>
      <trkpt lat="45.39187" lon="6.12255">
        <ele>1506.4000244141</ele>
        <time>2011-11-13T09:54:33.000Z</time>
      </trkpt>
      <trkpt lat="45.39181" lon="6.12222">
        <ele>1504.8000488281</ele>
        <time>2011-11-13T09:54:36.000Z</time>
      </trkpt>
      <trkpt lat="45.39177" lon="6.12197">
        <ele>1503.4000244141</ele>
        <time>2011-11-13T09:54:38.000Z</time>
      </trkpt>
      <trkpt lat="45.39176" lon="6.12185">
        <ele>1503</ele>
        <time>2011-11-13T09:54:39.000Z</time>
      </trkpt>
      <trkpt lat="45.39175" lon="6.12158">
        <ele>1502</ele>
        <time>2011-11-13T09:54:41.000Z</time>
      </trkpt>
      <trkpt lat="45.3918" lon="6.12115">
        <ele>1499.4000244141</ele>
        <time>2011-11-13T09:54:44.000Z</time>
      </trkpt>
      <trkpt lat="45.39185" lon="6.12084">
        <ele>1497.8000488281</ele>
        <time>2011-11-13T09:54:46.000Z</time>
      </trkpt>
      <trkpt lat="45.39192" lon="6.12053">
        <ele>1495.8000488281</ele>
        <time>2011-11-13T09:54:48.000Z</time>
      </trkpt>
      <trkpt lat="45.39199" lon="6.12024">
        <ele>1493.8000488281</ele>
        <time>2011-11-13T09:54:50.000Z</time>
      </trkpt>
      <trkpt lat="45.39201" lon="6.1201">
        <ele>1492.8000488281</ele>
        <time>2011-11-13T09:54:51.000Z</time>
      </trkpt>
      <trkpt lat="45.39203" lon="6.11996">
        <ele>1492</ele>
        <time>2011-11-13T09:54:52.000Z</time>
      </trkpt>
      <trkpt lat="45.39204" lon="6.11956">
        <ele>1489.4000244141</ele>
        <time>2011-11-13T09:54:55.000Z</time>
      </trkpt>
      <trkpt lat="45.39203" lon="6.11941">
        <ele>1488.4000244141</ele>
        <time>2011-11-13T09:54:56.000Z</time>
      </trkpt>
      <trkpt lat="45.39202" lon="6.11927">
        <ele>1487.4000244141</ele>
        <time>2011-11-13T09:54:57.000Z</time>
      </trkpt>
      <trkpt lat="45.39201" lon="6.11904">
        <ele>1485.8000488281</ele>
        <time>2011-11-13T09:54:59.000Z</time>
      </trkpt>
      <trkpt lat="45.392" lon="6.11887">
        <ele>1484</ele>
        <time>2011-11-13T09:55:01.000Z</time>
      </trkpt>
      <trkpt lat="45.392" lon="6.11883">
        <ele>1483</ele>
        <time>2011-11-13T09:55:02.000Z</time>
      </trkpt>
      <trkpt lat="45.39198" lon="6.11883">
        <ele>1481.4000244141</ele>
        <time>2011-11-13T09:55:05.000Z</time>
      </trkpt>
      <trkpt lat="45.39197" lon="6.11886">
        <ele>1480.4000244141</ele>
        <time>2011-11-13T09:55:07.000Z</time>
      </trkpt>
      <trkpt lat="45.39196" lon="6.11887">
        <ele>1479</ele>
        <time>2011-11-13T09:55:09.000Z</time>
      </trkpt>
      <trkpt lat="45.39196" lon="6.11886">
        <ele>1478.4000244141</ele>
        <time>2011-11-13T09:55:11.000Z</time>
      </trkpt>
      <trkpt lat="45.39195" lon="6.11884">
        <ele>1477.4000244141</ele>
        <time>2011-11-13T09:55:13.000Z</time>
      </trkpt>
      <trkpt lat="45.39194" lon="6.11884">
        <ele>1477.4000244141</ele>
        <time>2011-11-13T09:55:14.000Z</time>
      </trkpt>
      <trkpt lat="45.39191" lon="6.11884">
        <ele>1477</ele>
        <time>2011-11-13T09:55:15.000Z</time>
      </trkpt>
      <trkpt lat="45.39186" lon="6.11885">
        <ele>1476.4000244141</ele>
        <time>2011-11-13T09:55:17.000Z</time>
      </trkpt>
      <trkpt lat="45.39183" lon="6.11885">
        <ele>1475.8000488281</ele>
        <time>2011-11-13T09:55:18.000Z</time>
      </trkpt>
      <trkpt lat="45.39172" lon="6.11876">
        <ele>1473.4000244141</ele>
        <time>2011-11-13T09:55:21.000Z</time>
      </trkpt>
      <trkpt lat="45.39167" lon="6.11873">
        <ele>1472.4000244141</ele>
        <time>2011-11-13T09:55:22.000Z</time>
      </trkpt>
      <trkpt lat="45.39162" lon="6.11871">
        <ele>1471.4000244141</ele>
        <time>2011-11-13T09:55:23.000Z</time>
      </trkpt>
      <trkpt lat="45.39157" lon="6.11868">
        <ele>1470</ele>
        <time>2011-11-13T09:55:24.000Z</time>
      </trkpt>
      <trkpt lat="45.39152" lon="6.11866">
        <ele>1468.4000244141</ele>
        <time>2011-11-13T09:55:25.000Z</time>
      </trkpt>
      <trkpt lat="45.39148" lon="6.11864">
        <ele>1467</ele>
        <time>2011-11-13T09:55:26.000Z</time>
      </trkpt>
      <trkpt lat="45.39138" lon="6.11859">
        <ele>1464</ele>
        <time>2011-11-13T09:55:28.000Z</time>
      </trkpt>
      <trkpt lat="45.39135" lon="6.11853">
        <ele>1462.4000244141</ele>
        <time>2011-11-13T09:55:29.000Z</time>
      </trkpt>
      <trkpt lat="45.39132" lon="6.11837">
        <ele>1459</ele>
        <time>2011-11-13T09:55:31.000Z</time>
      </trkpt>
      <trkpt lat="45.39129" lon="6.11825">
        <ele>1457.4000244141</ele>
        <time>2011-11-13T09:55:32.000Z</time>
      </trkpt>
      <trkpt lat="45.39127" lon="6.118">
        <ele>1454.4000244141</ele>
        <time>2011-11-13T09:55:34.000Z</time>
      </trkpt>
      <trkpt lat="45.39131" lon="6.11775">
        <ele>1450</ele>
        <time>2011-11-13T09:55:37.000Z</time>
      </trkpt>
      <trkpt lat="45.39134" lon="6.11769">
        <ele>1448.4000244141</ele>
        <time>2011-11-13T09:55:38.000Z</time>
      </trkpt>
      <trkpt lat="45.39136" lon="6.11763">
        <ele>1447</ele>
        <time>2011-11-13T09:55:39.000Z</time>
      </trkpt>
      <trkpt lat="45.39148" lon="6.11735">
        <ele>1443</ele>
        <time>2011-11-13T09:55:42.000Z</time>
      </trkpt>
      <trkpt lat="45.39153" lon="6.11729">
        <ele>1441.8000488281</ele>
        <time>2011-11-13T09:55:43.000Z</time>
      </trkpt>
      <trkpt lat="45.39156" lon="6.11723">
        <ele>1440.8000488281</ele>
        <time>2011-11-13T09:55:44.000Z</time>
      </trkpt>
      <trkpt lat="45.39159" lon="6.11713">
        <ele>1438.4000244141</ele>
        <time>2011-11-13T09:55:46.000Z</time>
      </trkpt>
      <trkpt lat="45.39161" lon="6.11708">
        <ele>1437.4000244141</ele>
        <time>2011-11-13T09:55:47.000Z</time>
      </trkpt>
      <trkpt lat="45.39165" lon="6.11702">
        <ele>1436.4000244141</ele>
        <time>2011-11-13T09:55:48.000Z</time>
      </trkpt>
      <trkpt lat="45.39166" lon="6.117">
        <ele>1435.4000244141</ele>
        <time>2011-11-13T09:55:49.000Z</time>
      </trkpt>
      <trkpt lat="45.39173" lon="6.1169">
        <ele>1433.4000244141</ele>
        <time>2011-11-13T09:55:51.000Z</time>
      </trkpt>
      <trkpt lat="45.39179" lon="6.1168">
        <ele>1431.8000488281</ele>
        <time>2011-11-13T09:55:53.000Z</time>
      </trkpt>
      <trkpt lat="45.39186" lon="6.11662">
        <ele>1429.4000244141</ele>
        <time>2011-11-13T09:55:56.000Z</time>
      </trkpt>
      <trkpt lat="45.39185" lon="6.11655">
        <ele>1428.4000244141</ele>
        <time>2011-11-13T09:55:57.000Z</time>
      </trkpt>
      <trkpt lat="45.39184" lon="6.11652">
        <ele>1427.8000488281</ele>
        <time>2011-11-13T09:55:58.000Z</time>
      </trkpt>
      <trkpt lat="45.3918" lon="6.11646">
        <ele>1426.8000488281</ele>
        <time>2011-11-13T09:55:59.000Z</time>
      </trkpt>
      <trkpt lat="45.39174" lon="6.11638">
        <ele>1426</ele>
        <time>2011-11-13T09:56:00.000Z</time>
      </trkpt>
      <trkpt lat="45.39165" lon="6.11617">
        <ele>1423</ele>
        <time>2011-11-13T09:56:03.000Z</time>
      </trkpt>
      <trkpt lat="45.39168" lon="6.11601">
        <ele>1420.8000488281</ele>
        <time>2011-11-13T09:56:05.000Z</time>
      </trkpt>
      <trkpt lat="45.39171" lon="6.11591">
        <ele>1419.4000244141</ele>
        <time>2011-11-13T09:56:06.000Z</time>
      </trkpt>
      <trkpt lat="45.39174" lon="6.11581">
        <ele>1417.8000488281</ele>
        <time>2011-11-13T09:56:07.000Z</time>
      </trkpt>
      <trkpt lat="45.39175" lon="6.11573">
        <ele>1416.4000244141</ele>
        <time>2011-11-13T09:56:08.000Z</time>
      </trkpt>
      <trkpt lat="45.39176" lon="6.11566">
        <ele>1415</ele>
        <time>2011-11-13T09:56:09.000Z</time>
      </trkpt>
      <trkpt lat="45.39169" lon="6.11566">
        <ele>1410.4000244141</ele>
        <time>2011-11-13T09:56:12.000Z</time>
      </trkpt>
      <trkpt lat="45.39163" lon="6.11574">
        <ele>1407.8000488281</ele>
        <time>2011-11-13T09:56:14.000Z</time>
      </trkpt>
      <trkpt lat="45.3916" lon="6.11575">
        <ele>1406.4000244141</ele>
        <time>2011-11-13T09:56:15.000Z</time>
      </trkpt>
      <trkpt lat="45.39149" lon="6.11577">
        <ele>1403.8000488281</ele>
        <time>2011-11-13T09:56:17.000Z</time>
      </trkpt>
      <trkpt lat="45.39138" lon="6.1159">
        <ele>1399.8000488281</ele>
        <time>2011-11-13T09:56:20.000Z</time>
      </trkpt>
      <trkpt lat="45.39136" lon="6.11596">
        <ele>1398.4000244141</ele>
        <time>2011-11-13T09:56:21.000Z</time>
      </trkpt>
      <trkpt lat="45.39133" lon="6.11602">
        <ele>1397.4000244141</ele>
        <time>2011-11-13T09:56:22.000Z</time>
      </trkpt>
      <trkpt lat="45.3913" lon="6.11605">
        <ele>1396</ele>
        <time>2011-11-13T09:56:23.000Z</time>
      </trkpt>
      <trkpt lat="45.39125" lon="6.11599">
        <ele>1393</ele>
        <time>2011-11-13T09:56:26.000Z</time>
      </trkpt>
      <trkpt lat="45.39124" lon="6.11595">
        <ele>1391.4000244141</ele>
        <time>2011-11-13T09:56:28.000Z</time>
      </trkpt>
      <trkpt lat="45.39123" lon="6.11596">
        <ele>1389.8000488281</ele>
        <time>2011-11-13T09:56:30.000Z</time>
      </trkpt>
      <trkpt lat="45.39123" lon="6.11596">
        <ele>1388.4000244141</ele>
        <time>2011-11-13T09:56:32.000Z</time>
      </trkpt>
      <trkpt lat="45.39122" lon="6.11595">
        <ele>1387.4000244141</ele>
        <time>2011-11-13T09:56:34.000Z</time>
      </trkpt>
      <trkpt lat="45.39119" lon="6.11593">
        <ele>1385</ele>
        <time>2011-11-13T09:56:43.000Z</time>
      </trkpt>
      <trkpt lat="45.39118" lon="6.11592">
        <ele>1385</ele>
        <time>2011-11-13T09:56:44.000Z</time>
      </trkpt>
      <trkpt lat="45.39111" lon="6.11594">
        <ele>1384.4000244141</ele>
        <time>2011-11-13T09:56:46.000Z</time>
      </trkpt>
      <trkpt lat="45.39106" lon="6.11597">
        <ele>1384</ele>
        <time>2011-11-13T09:56:47.000Z</time>
      </trkpt>
      <trkpt lat="45.39094" lon="6.11603">
        <ele>1382.8000488281</ele>
        <time>2011-11-13T09:56:49.000Z</time>
      </trkpt>
      <trkpt lat="45.39084" lon="6.11596">
        <ele>1380.4000244141</ele>
        <time>2011-11-13T09:56:52.000Z</time>
      </trkpt>
      <trkpt lat="45.39083" lon="6.11588">
        <ele>1379.8000488281</ele>
        <time>2011-11-13T09:56:53.000Z</time>
      </trkpt>
      <trkpt lat="45.39083" lon="6.11567">
        <ele>1378</ele>
        <time>2011-11-13T09:56:55.000Z</time>
      </trkpt>
      <trkpt lat="45.39082" lon="6.11556">
        <ele>1377</ele>
        <time>2011-11-13T09:56:56.000Z</time>
      </trkpt>
      <trkpt lat="45.39082" lon="6.11538">
        <ele>1375</ele>
        <time>2011-11-13T09:56:58.000Z</time>
      </trkpt>
      <trkpt lat="45.39085" lon="6.11517">
        <ele>1373</ele>
        <time>2011-11-13T09:57:01.000Z</time>
      </trkpt>
      <trkpt lat="45.39085" lon="6.11509">
        <ele>1372.4000244141</ele>
        <time>2011-11-13T09:57:02.000Z</time>
      </trkpt>
      <trkpt lat="45.39087" lon="6.1148">
        <ele>1370.4000244141</ele>
        <time>2011-11-13T09:57:05.000Z</time>
      </trkpt>
      <trkpt lat="45.39089" lon="6.11471">
        <ele>1370</ele>
        <time>2011-11-13T09:57:06.000Z</time>
      </trkpt>
      <trkpt lat="45.39091" lon="6.11462">
        <ele>1369.4000244141</ele>
        <time>2011-11-13T09:57:07.000Z</time>
      </trkpt>
      <trkpt lat="45.39094" lon="6.11446">
        <ele>1368.4000244141</ele>
        <time>2011-11-13T09:57:09.000Z</time>
      </trkpt>
      <trkpt lat="45.39097" lon="6.11439">
        <ele>1367.8000488281</ele>
        <time>2011-11-13T09:57:10.000Z</time>
      </trkpt>
      <trkpt lat="45.39097" lon="6.11435">
        <ele>1367.4000244141</ele>
        <time>2011-11-13T09:57:11.000Z</time>
      </trkpt>
      <trkpt lat="45.39098" lon="6.11434">
        <ele>1366.4000244141</ele>
        <time>2011-11-13T09:57:13.000Z</time>
      </trkpt>
      <trkpt lat="45.39098" lon="6.11437">
        <ele>1365.8000488281</ele>
        <time>2011-11-13T09:57:15.000Z</time>
      </trkpt>
      <trkpt lat="45.39098" lon="6.11439">
        <ele>1365</ele>
        <time>2011-11-13T09:57:17.000Z</time>
      </trkpt>
      <trkpt lat="45.39099" lon="6.11434">
        <ele>1363.8000488281</ele>
        <time>2011-11-13T09:57:25.000Z</time>
      </trkpt>
      <trkpt lat="45.39099" lon="6.11432">
        <ele>1363.4000244141</ele>
        <time>2011-11-13T09:57:27.000Z</time>
      </trkpt>
      <trkpt lat="45.39105" lon="6.11421">
        <ele>1363</ele>
        <time>2011-11-13T09:57:31.000Z</time>
      </trkpt>
      <trkpt lat="45.3911" lon="6.11411">
        <ele>1362.4000244141</ele>
        <time>2011-11-13T09:57:33.000Z</time>
      </trkpt>
      <trkpt lat="45.39122" lon="6.11402">
        <ele>1362</ele>
        <time>2011-11-13T09:57:35.000Z</time>
      </trkpt>
      <trkpt lat="45.39129" lon="6.11391">
        <ele>1361</ele>
        <time>2011-11-13T09:57:37.000Z</time>
      </trkpt>
      <trkpt lat="45.39131" lon="6.11384">
        <ele>1360.4000244141</ele>
        <time>2011-11-13T09:57:38.000Z</time>
      </trkpt>
      <trkpt lat="45.3913" lon="6.11375">
        <ele>1360</ele>
        <time>2011-11-13T09:57:39.000Z</time>
      </trkpt>
      <trkpt lat="45.39133" lon="6.11367">
        <ele>1359.4000244141</ele>
        <time>2011-11-13T09:57:40.000Z</time>
      </trkpt>
      <trkpt lat="45.39134" lon="6.11357">
        <ele>1358.4000244141</ele>
        <time>2011-11-13T09:57:41.000Z</time>
      </trkpt>
      <trkpt lat="45.39136" lon="6.11347">
        <ele>1357.8000488281</ele>
        <time>2011-11-13T09:57:42.000Z</time>
      </trkpt>
      <trkpt lat="45.39142" lon="6.11331">
        <ele>1356.4000244141</ele>
        <time>2011-11-13T09:57:44.000Z</time>
      </trkpt>
      <trkpt lat="45.39143" lon="6.11326">
        <ele>1355.4000244141</ele>
        <time>2011-11-13T09:57:45.000Z</time>
      </trkpt>
      <trkpt lat="45.39145" lon="6.11323">
        <ele>1354.4000244141</ele>
        <time>2011-11-13T09:57:46.000Z</time>
      </trkpt>
      <trkpt lat="45.39147" lon="6.1132">
        <ele>1353.4000244141</ele>
        <time>2011-11-13T09:57:47.000Z</time>
      </trkpt>
      <trkpt lat="45.39151" lon="6.11303">
        <ele>1351.8000488281</ele>
        <time>2011-11-13T09:57:49.000Z</time>
      </trkpt>
      <trkpt lat="45.39154" lon="6.11289">
        <ele>1349.8000488281</ele>
        <time>2011-11-13T09:57:51.000Z</time>
      </trkpt>
      <trkpt lat="45.39154" lon="6.11283">
        <ele>1349</ele>
        <time>2011-11-13T09:57:52.000Z</time>
      </trkpt>
      <trkpt lat="45.39157" lon="6.11279">
        <ele>1348</ele>
        <time>2011-11-13T09:57:53.000Z</time>
      </trkpt>
      <trkpt lat="45.3916" lon="6.11277">
        <ele>1347</ele>
        <time>2011-11-13T09:57:54.000Z</time>
      </trkpt>
      <trkpt lat="45.39164" lon="6.11276">
        <ele>1345.4000244141</ele>
        <time>2011-11-13T09:57:56.000Z</time>
      </trkpt>
      <trkpt lat="45.39165" lon="6.11273">
        <ele>1344.4000244141</ele>
        <time>2011-11-13T09:57:57.000Z</time>
      </trkpt>
      <trkpt lat="45.39167" lon="6.1127">
        <ele>1344</ele>
        <time>2011-11-13T09:57:58.000Z</time>
      </trkpt>
      <trkpt lat="45.3917" lon="6.11262">
        <ele>1343</ele>
        <time>2011-11-13T09:58:00.000Z</time>
      </trkpt>
      <trkpt lat="45.39174" lon="6.1125">
        <ele>1342</ele>
        <time>2011-11-13T09:58:02.000Z</time>
      </trkpt>
      <trkpt lat="45.39176" lon="6.11245">
        <ele>1341.4000244141</ele>
        <time>2011-11-13T09:58:03.000Z</time>
      </trkpt>
      <trkpt lat="45.39189" lon="6.11221">
        <ele>1340.4000244141</ele>
        <time>2011-11-13T09:58:07.000Z</time>
      </trkpt>
      <trkpt lat="45.39201" lon="6.11209">
        <ele>1339.4000244141</ele>
        <time>2011-11-13T09:58:09.000Z</time>
      </trkpt>
      <trkpt lat="45.39203" lon="6.11206">
        <ele>1339</ele>
        <time>2011-11-13T09:58:10.000Z</time>
      </trkpt>
      <trkpt lat="45.39207" lon="6.112">
        <ele>1338.8000488281</ele>
        <time>2011-11-13T09:58:11.000Z</time>
      </trkpt>
      <trkpt lat="45.39211" lon="6.11187">
        <ele>1338</ele>
        <time>2011-11-13T09:58:13.000Z</time>
      </trkpt>
      <trkpt lat="45.39212" lon="6.1118">
        <ele>1337.4000244141</ele>
        <time>2011-11-13T09:58:14.000Z</time>
      </trkpt>
      <trkpt lat="45.39214" lon="6.11177">
        <ele>1337</ele>
        <time>2011-11-13T09:58:15.000Z</time>
      </trkpt>
      <trkpt lat="45.39222" lon="6.11168">
        <ele>1336.4000244141</ele>
        <time>2011-11-13T09:58:17.000Z</time>
      </trkpt>
      <trkpt lat="45.39227" lon="6.11163">
        <ele>1336</ele>
        <time>2011-11-13T09:58:18.000Z</time>
      </trkpt>
      <trkpt lat="45.39227" lon="6.11153">
        <ele>1335.4000244141</ele>
        <time>2011-11-13T09:58:19.000Z</time>
      </trkpt>
      <trkpt lat="45.3923" lon="6.11143">
        <ele>1335</ele>
        <time>2011-11-13T09:58:20.000Z</time>
      </trkpt>
      <trkpt lat="45.3923" lon="6.11134">
        <ele>1334.4000244141</ele>
        <time>2011-11-13T09:58:21.000Z</time>
      </trkpt>
      <trkpt lat="45.39231" lon="6.11116">
        <ele>1333</ele>
        <time>2011-11-13T09:58:23.000Z</time>
      </trkpt>
      <trkpt lat="45.39233" lon="6.11109">
        <ele>1332.8000488281</ele>
        <time>2011-11-13T09:58:24.000Z</time>
      </trkpt>
      <trkpt lat="45.39239" lon="6.11097">
        <ele>1331.4000244141</ele>
        <time>2011-11-13T09:58:27.000Z</time>
      </trkpt>
      <trkpt lat="45.39241" lon="6.1109">
        <ele>1331</ele>
        <time>2011-11-13T09:58:28.000Z</time>
      </trkpt>
      <trkpt lat="45.39243" lon="6.11085">
        <ele>1330.4000244141</ele>
        <time>2011-11-13T09:58:29.000Z</time>
      </trkpt>
      <trkpt lat="45.39249" lon="6.11072">
        <ele>1329.4000244141</ele>
        <time>2011-11-13T09:58:31.000Z</time>
      </trkpt>
      <trkpt lat="45.39252" lon="6.11057">
        <ele>1327.8000488281</ele>
        <time>2011-11-13T09:58:33.000Z</time>
      </trkpt>
      <trkpt lat="45.39253" lon="6.11049">
        <ele>1326.8000488281</ele>
        <time>2011-11-13T09:58:34.000Z</time>
      </trkpt>
      <trkpt lat="45.39253" lon="6.11034">
        <ele>1324.4000244141</ele>
        <time>2011-11-13T09:58:36.000Z</time>
      </trkpt>
      <trkpt lat="45.3925" lon="6.11023">
        <ele>1322</ele>
        <time>2011-11-13T09:58:38.000Z</time>
      </trkpt>
      <trkpt lat="45.39252" lon="6.1101">
        <ele>1319.4000244141</ele>
        <time>2011-11-13T09:58:40.000Z</time>
      </trkpt>
      <trkpt lat="45.39258" lon="6.10995">
        <ele>1317.4000244141</ele>
        <time>2011-11-13T09:58:42.000Z</time>
      </trkpt>
      <trkpt lat="45.39261" lon="6.10985">
        <ele>1316</ele>
        <time>2011-11-13T09:58:43.000Z</time>
      </trkpt>
      <trkpt lat="45.39262" lon="6.10972">
        <ele>1315</ele>
        <time>2011-11-13T09:58:44.000Z</time>
      </trkpt>
      <trkpt lat="45.39262" lon="6.10959">
        <ele>1314</ele>
        <time>2011-11-13T09:58:45.000Z</time>
      </trkpt>
      <trkpt lat="45.39262" lon="6.10931">
        <ele>1311.4000244141</ele>
        <time>2011-11-13T09:58:47.000Z</time>
      </trkpt>
      <trkpt lat="45.39263" lon="6.10918">
        <ele>1310.4000244141</ele>
        <time>2011-11-13T09:58:48.000Z</time>
      </trkpt>
      <trkpt lat="45.39277" lon="6.10886">
        <ele>1306.4000244141</ele>
        <time>2011-11-13T09:58:51.000Z</time>
      </trkpt>
      <trkpt lat="45.3929" lon="6.10877">
        <ele>1304.8000488281</ele>
        <time>2011-11-13T09:58:53.000Z</time>
      </trkpt>
      <trkpt lat="45.39302" lon="6.10871">
        <ele>1303</ele>
        <time>2011-11-13T09:58:55.000Z</time>
      </trkpt>
      <trkpt lat="45.39306" lon="6.10867">
        <ele>1302.4000244141</ele>
        <time>2011-11-13T09:58:56.000Z</time>
      </trkpt>
      <trkpt lat="45.39314" lon="6.10859">
        <ele>1301</ele>
        <time>2011-11-13T09:58:58.000Z</time>
      </trkpt>
      <trkpt lat="45.39323" lon="6.1085">
        <ele>1300</ele>
        <time>2011-11-13T09:59:00.000Z</time>
      </trkpt>
      <trkpt lat="45.39334" lon="6.10841">
        <ele>1298.8000488281</ele>
        <time>2011-11-13T09:59:02.000Z</time>
      </trkpt>
      <trkpt lat="45.39337" lon="6.10836">
        <ele>1298</ele>
        <time>2011-11-13T09:59:03.000Z</time>
      </trkpt>
      <trkpt lat="45.3934" lon="6.10831">
        <ele>1297.4000244141</ele>
        <time>2011-11-13T09:59:04.000Z</time>
      </trkpt>
      <trkpt lat="45.39343" lon="6.10828">
        <ele>1297</ele>
        <time>2011-11-13T09:59:05.000Z</time>
      </trkpt>
      <trkpt lat="45.39347" lon="6.10816">
        <ele>1295.8000488281</ele>
        <time>2011-11-13T09:59:08.000Z</time>
      </trkpt>
      <trkpt lat="45.39348" lon="6.10812">
        <ele>1295</ele>
        <time>2011-11-13T09:59:09.000Z</time>
      </trkpt>
      <trkpt lat="45.3935" lon="6.10807">
        <ele>1294.8000488281</ele>
        <time>2011-11-13T09:59:10.000Z</time>
      </trkpt>
      <trkpt lat="45.39356" lon="6.10793">
        <ele>1293</ele>
        <time>2011-11-13T09:59:13.000Z</time>
      </trkpt>
      <trkpt lat="45.39358" lon="6.10787">
        <ele>1292</ele>
        <time>2011-11-13T09:59:15.000Z</time>
      </trkpt>
      <trkpt lat="45.39358" lon="6.10784">
        <ele>1291.8000488281</ele>
        <time>2011-11-13T09:59:16.000Z</time>
      </trkpt>
      <trkpt lat="45.39355" lon="6.10776">
        <ele>1290.8000488281</ele>
        <time>2011-11-13T09:59:19.000Z</time>
      </trkpt>
      <trkpt lat="45.39354" lon="6.10772">
        <ele>1290.4000244141</ele>
        <time>2011-11-13T09:59:20.000Z</time>
      </trkpt>
      <trkpt lat="45.39347" lon="6.10757">
        <ele>1289</ele>
        <time>2011-11-13T09:59:25.000Z</time>
      </trkpt>
      <trkpt lat="45.39346" lon="6.10753">
        <ele>1288.4000244141</ele>
        <time>2011-11-13T09:59:27.000Z</time>
      </trkpt>
      <trkpt lat="45.39345" lon="6.10748">
        <ele>1288</ele>
        <time>2011-11-13T09:59:29.000Z</time>
      </trkpt>
      <trkpt lat="45.39345" lon="6.10745">
        <ele>1287.4000244141</ele>
        <time>2011-11-13T09:59:31.000Z</time>
      </trkpt>
      <trkpt lat="45.39345" lon="6.10744">
        <ele>1287</ele>
        <time>2011-11-13T09:59:33.000Z</time>
      </trkpt>
      <trkpt lat="45.39346" lon="6.10743">
        <ele>1285.8000488281</ele>
        <time>2011-11-13T09:59:58.000Z</time>
      </trkpt>
      <trkpt lat="45.39354" lon="6.1073">
        <ele>1285.8000488281</ele>
        <time>2011-11-13T10:00:05.000Z</time>
      </trkpt>
      <trkpt lat="45.39358" lon="6.10727">
        <ele>1285.4000244141</ele>
        <time>2011-11-13T10:00:07.000Z</time>
      </trkpt>
      <trkpt lat="45.3936" lon="6.10722">
        <ele>1285</ele>
        <time>2011-11-13T10:00:09.000Z</time>
      </trkpt>
      <trkpt lat="45.39362" lon="6.10719">
        <ele>1285</ele>
        <time>2011-11-13T10:00:10.000Z</time>
      </trkpt>
      <trkpt lat="45.39363" lon="6.10705">
        <ele>1284.4000244141</ele>
        <time>2011-11-13T10:00:13.000Z</time>
      </trkpt>
      <trkpt lat="45.39362" lon="6.10698">
        <ele>1284.4000244141</ele>
        <time>2011-11-13T10:00:14.000Z</time>
      </trkpt>
      <trkpt lat="45.3936" lon="6.10688">
        <ele>1284</ele>
        <time>2011-11-13T10:00:16.000Z</time>
      </trkpt>
      <trkpt lat="45.39356" lon="6.10678">
        <ele>1283.4000244141</ele>
        <time>2011-11-13T10:00:18.000Z</time>
      </trkpt>
      <trkpt lat="45.3935" lon="6.10668">
        <ele>1283</ele>
        <time>2011-11-13T10:00:20.000Z</time>
      </trkpt>
      <trkpt lat="45.39346" lon="6.10662">
        <ele>1282.8000488281</ele>
        <time>2011-11-13T10:00:21.000Z</time>
      </trkpt>
      <trkpt lat="45.39336" lon="6.10646">
        <ele>1281.8000488281</ele>
        <time>2011-11-13T10:00:24.000Z</time>
      </trkpt>
      <trkpt lat="45.39329" lon="6.10635">
        <ele>1281</ele>
        <time>2011-11-13T10:00:26.000Z</time>
      </trkpt>
      <trkpt lat="45.39325" lon="6.10631">
        <ele>1280.4000244141</ele>
        <time>2011-11-13T10:00:27.000Z</time>
      </trkpt>
      <trkpt lat="45.3932" lon="6.10626">
        <ele>1280</ele>
        <time>2011-11-13T10:00:28.000Z</time>
      </trkpt>
      <trkpt lat="45.3931" lon="6.10618">
        <ele>1279.4000244141</ele>
        <time>2011-11-13T10:00:30.000Z</time>
      </trkpt>
      <trkpt lat="45.39299" lon="6.10607">
        <ele>1278.4000244141</ele>
        <time>2011-11-13T10:00:32.000Z</time>
      </trkpt>
      <trkpt lat="45.39293" lon="6.10602">
        <ele>1277.8000488281</ele>
        <time>2011-11-13T10:00:33.000Z</time>
      </trkpt>
      <trkpt lat="45.39282" lon="6.10592">
        <ele>1276.4000244141</ele>
        <time>2011-11-13T10:00:35.000Z</time>
      </trkpt>
      <trkpt lat="45.39279" lon="6.10586">
        <ele>1276</ele>
        <time>2011-11-13T10:00:36.000Z</time>
      </trkpt>
      <trkpt lat="45.39276" lon="6.1058">
        <ele>1275.4000244141</ele>
        <time>2011-11-13T10:00:37.000Z</time>
      </trkpt>
      <trkpt lat="45.39269" lon="6.10568">
        <ele>1274</ele>
        <time>2011-11-13T10:00:39.000Z</time>
      </trkpt>
      <trkpt lat="45.39263" lon="6.1056">
        <ele>1273.4000244141</ele>
        <time>2011-11-13T10:00:40.000Z</time>
      </trkpt>
      <trkpt lat="45.39252" lon="6.10544">
        <ele>1271.4000244141</ele>
        <time>2011-11-13T10:00:42.000Z</time>
      </trkpt>
      <trkpt lat="45.39249" lon="6.10534">
        <ele>1270.8000488281</ele>
        <time>2011-11-13T10:00:43.000Z</time>
      </trkpt>
      <trkpt lat="45.39247" lon="6.10524">
        <ele>1269.4000244141</ele>
        <time>2011-11-13T10:00:44.000Z</time>
      </trkpt>
      <trkpt lat="45.39242" lon="6.10501">
        <ele>1267.4000244141</ele>
        <time>2011-11-13T10:00:46.000Z</time>
      </trkpt>
      <trkpt lat="45.39239" lon="6.1049">
        <ele>1266</ele>
        <time>2011-11-13T10:00:47.000Z</time>
      </trkpt>
      <trkpt lat="45.39236" lon="6.10479">
        <ele>1265</ele>
        <time>2011-11-13T10:00:48.000Z</time>
      </trkpt>
      <trkpt lat="45.39226" lon="6.10464">
        <ele>1260.8000488281</ele>
        <time>2011-11-13T10:00:51.000Z</time>
      </trkpt>
      <trkpt lat="45.39232" lon="6.10462">
        <ele>1258</ele>
        <time>2011-11-13T10:00:53.000Z</time>
      </trkpt>
      <trkpt lat="45.39238" lon="6.10459">
        <ele>1255.4000244141</ele>
        <time>2011-11-13T10:00:55.000Z</time>
      </trkpt>
      <trkpt lat="45.39238" lon="6.10456">
        <ele>1254</ele>
        <time>2011-11-13T10:00:56.000Z</time>
      </trkpt>
      <trkpt lat="45.39237" lon="6.1045">
        <ele>1253</ele>
        <time>2011-11-13T10:00:57.000Z</time>
      </trkpt>
      <trkpt lat="45.39228" lon="6.10429">
        <ele>1250.4000244141</ele>
        <time>2011-11-13T10:00:59.000Z</time>
      </trkpt>
      <trkpt lat="45.39221" lon="6.10419">
        <ele>1249</ele>
        <time>2011-11-13T10:01:00.000Z</time>
      </trkpt>
      <trkpt lat="45.39205" lon="6.10408">
        <ele>1246.4000244141</ele>
        <time>2011-11-13T10:01:02.000Z</time>
      </trkpt>
      <trkpt lat="45.39195" lon="6.10409">
        <ele>1245.4000244141</ele>
        <time>2011-11-13T10:01:03.000Z</time>
      </trkpt>
      <trkpt lat="45.39176" lon="6.10414">
        <ele>1243</ele>
        <time>2011-11-13T10:01:05.000Z</time>
      </trkpt>
      <trkpt lat="45.39157" lon="6.10421">
        <ele>1241</ele>
        <time>2011-11-13T10:01:07.000Z</time>
      </trkpt>
      <trkpt lat="45.39147" lon="6.10423">
        <ele>1240</ele>
        <time>2011-11-13T10:01:08.000Z</time>
      </trkpt>
      <trkpt lat="45.39137" lon="6.10425">
        <ele>1239</ele>
        <time>2011-11-13T10:01:09.000Z</time>
      </trkpt>
      <trkpt lat="45.39118" lon="6.10437">
        <ele>1237</ele>
        <time>2011-11-13T10:01:11.000Z</time>
      </trkpt>
      <trkpt lat="45.39102" lon="6.10454">
        <ele>1235</ele>
        <time>2011-11-13T10:01:13.000Z</time>
      </trkpt>
      <trkpt lat="45.39095" lon="6.10465">
        <ele>1234</ele>
        <time>2011-11-13T10:01:14.000Z</time>
      </trkpt>
      <trkpt lat="45.39082" lon="6.10487">
        <ele>1232.4000244141</ele>
        <time>2011-11-13T10:01:16.000Z</time>
      </trkpt>
      <trkpt lat="45.39077" lon="6.10497">
        <ele>1231</ele>
        <time>2011-11-13T10:01:17.000Z</time>
      </trkpt>
      <trkpt lat="45.39074" lon="6.10505">
        <ele>1230.4000244141</ele>
        <time>2011-11-13T10:01:18.000Z</time>
      </trkpt>
      <trkpt lat="45.39068" lon="6.10506">
        <ele>1228</ele>
        <time>2011-11-13T10:01:21.000Z</time>
      </trkpt>
      <trkpt lat="45.39069" lon="6.10503">
        <ele>1227</ele>
        <time>2011-11-13T10:01:22.000Z</time>
      </trkpt>
      <trkpt lat="45.39069" lon="6.105">
        <ele>1225.8000488281</ele>
        <time>2011-11-13T10:01:24.000Z</time>
      </trkpt>
      <trkpt lat="45.3907" lon="6.105">
        <ele>1224.4000244141</ele>
        <time>2011-11-13T10:01:26.000Z</time>
      </trkpt>
      <trkpt lat="45.39071" lon="6.10501">
        <ele>1223.8000488281</ele>
        <time>2011-11-13T10:01:28.000Z</time>
      </trkpt>
      <trkpt lat="45.39071" lon="6.10501">
        <ele>1223</ele>
        <time>2011-11-13T10:01:30.000Z</time>
      </trkpt>
      <trkpt lat="45.39071" lon="6.10501">
        <ele>1222</ele>
        <time>2011-11-13T10:01:34.000Z</time>
      </trkpt>
      <trkpt lat="45.39078" lon="6.10484">
        <ele>1221</ele>
        <time>2011-11-13T10:01:38.000Z</time>
      </trkpt>
      <trkpt lat="45.39079" lon="6.10476">
        <ele>1220.4000244141</ele>
        <time>2011-11-13T10:01:39.000Z</time>
      </trkpt>
      <trkpt lat="45.39081" lon="6.10468">
        <ele>1220</ele>
        <time>2011-11-13T10:01:40.000Z</time>
      </trkpt>
      <trkpt lat="45.39083" lon="6.10458">
        <ele>1219.8000488281</ele>
        <time>2011-11-13T10:01:41.000Z</time>
      </trkpt>
      <trkpt lat="45.39084" lon="6.10448">
        <ele>1219</ele>
        <time>2011-11-13T10:01:42.000Z</time>
      </trkpt>
      <trkpt lat="45.3909" lon="6.1043">
        <ele>1218.4000244141</ele>
        <time>2011-11-13T10:01:44.000Z</time>
      </trkpt>
      <trkpt lat="45.39093" lon="6.10421">
        <ele>1217.8000488281</ele>
        <time>2011-11-13T10:01:45.000Z</time>
      </trkpt>
      <trkpt lat="45.39098" lon="6.10408">
        <ele>1217</ele>
        <time>2011-11-13T10:01:47.000Z</time>
      </trkpt>
      <trkpt lat="45.39107" lon="6.10396">
        <ele>1216</ele>
        <time>2011-11-13T10:01:50.000Z</time>
      </trkpt>
      <trkpt lat="45.3911" lon="6.10392">
        <ele>1215</ele>
        <time>2011-11-13T10:01:52.000Z</time>
      </trkpt>
      <trkpt lat="45.3911" lon="6.10389">
        <ele>1214.4000244141</ele>
        <time>2011-11-13T10:01:54.000Z</time>
      </trkpt>
      <trkpt lat="45.39109" lon="6.10387">
        <ele>1213.8000488281</ele>
        <time>2011-11-13T10:01:56.000Z</time>
      </trkpt>
      <trkpt lat="45.39108" lon="6.10387">
        <ele>1213</ele>
        <time>2011-11-13T10:01:58.000Z</time>
      </trkpt>
      <trkpt lat="45.39108" lon="6.10387">
        <ele>1212.8000488281</ele>
        <time>2011-11-13T10:02:00.000Z</time>
      </trkpt>
      <trkpt lat="45.39109" lon="6.10386">
        <ele>1211.4000244141</ele>
        <time>2011-11-13T10:02:11.000Z</time>
      </trkpt>
      <trkpt lat="45.39115" lon="6.10375">
        <ele>1211.4000244141</ele>
        <time>2011-11-13T10:02:15.000Z</time>
      </trkpt>
      <trkpt lat="45.39121" lon="6.10365">
        <ele>1211.4000244141</ele>
        <time>2011-11-13T10:02:17.000Z</time>
      </trkpt>
      <trkpt lat="45.39129" lon="6.10347">
        <ele>1211</ele>
        <time>2011-11-13T10:02:21.000Z</time>
      </trkpt>
      <trkpt lat="45.3913" lon="6.10346">
        <ele>1210.4000244141</ele>
        <time>2011-11-13T10:02:23.000Z</time>
      </trkpt>
      <trkpt lat="45.3913" lon="6.10348">
        <ele>1210</ele>
        <time>2011-11-13T10:02:25.000Z</time>
      </trkpt>
      <trkpt lat="45.39129" lon="6.10348">
        <ele>1210</ele>
        <time>2011-11-13T10:02:27.000Z</time>
      </trkpt>
      <trkpt lat="45.39128" lon="6.10348">
        <ele>1209.8000488281</ele>
        <time>2011-11-13T10:02:29.000Z</time>
      </trkpt>
      <trkpt lat="45.39129" lon="6.10341">
        <ele>1209.4000244141</ele>
        <time>2011-11-13T10:02:36.000Z</time>
      </trkpt>
      <trkpt lat="45.39132" lon="6.10337">
        <ele>1209</ele>
        <time>2011-11-13T10:02:37.000Z</time>
      </trkpt>
      <trkpt lat="45.39134" lon="6.10332">
        <ele>1208.8000488281</ele>
        <time>2011-11-13T10:02:38.000Z</time>
      </trkpt>
      <trkpt lat="45.39143" lon="6.10311">
        <ele>1208</ele>
        <time>2011-11-13T10:02:41.000Z</time>
      </trkpt>
      <trkpt lat="45.39152" lon="6.10298">
        <ele>1207</ele>
        <time>2011-11-13T10:02:43.000Z</time>
      </trkpt>
      <trkpt lat="45.39159" lon="6.10295">
        <ele>1206.4000244141</ele>
        <time>2011-11-13T10:02:44.000Z</time>
      </trkpt>
      <trkpt lat="45.39173" lon="6.10285">
        <ele>1205.4000244141</ele>
        <time>2011-11-13T10:02:46.000Z</time>
      </trkpt>
      <trkpt lat="45.3918" lon="6.10281">
        <ele>1205</ele>
        <time>2011-11-13T10:02:47.000Z</time>
      </trkpt>
      <trkpt lat="45.39187" lon="6.10278">
        <ele>1204.4000244141</ele>
        <time>2011-11-13T10:02:48.000Z</time>
      </trkpt>
      <trkpt lat="45.39202" lon="6.10274">
        <ele>1203</ele>
        <time>2011-11-13T10:02:50.000Z</time>
      </trkpt>
      <trkpt lat="45.39209" lon="6.10274">
        <ele>1202.4000244141</ele>
        <time>2011-11-13T10:02:51.000Z</time>
      </trkpt>
      <trkpt lat="45.39221" lon="6.10274">
        <ele>1201</ele>
        <time>2011-11-13T10:02:53.000Z</time>
      </trkpt>
      <trkpt lat="45.39225" lon="6.10278">
        <ele>1200.4000244141</ele>
        <time>2011-11-13T10:02:54.000Z</time>
      </trkpt>
      <trkpt lat="45.39232" lon="6.10289">
        <ele>1198.8000488281</ele>
        <time>2011-11-13T10:02:56.000Z</time>
      </trkpt>
      <trkpt lat="45.39234" lon="6.10296">
        <ele>1198</ele>
        <time>2011-11-13T10:02:57.000Z</time>
      </trkpt>
      <trkpt lat="45.39236" lon="6.10305">
        <ele>1197</ele>
        <time>2011-11-13T10:02:58.000Z</time>
      </trkpt>
      <trkpt lat="45.39241" lon="6.10323">
        <ele>1195.4000244141</ele>
        <time>2011-11-13T10:03:00.000Z</time>
      </trkpt>
      <trkpt lat="45.39246" lon="6.10332">
        <ele>1194.8000488281</ele>
        <time>2011-11-13T10:03:01.000Z</time>
      </trkpt>
      <trkpt lat="45.3925" lon="6.1034">
        <ele>1193.8000488281</ele>
        <time>2011-11-13T10:03:02.000Z</time>
      </trkpt>
      <trkpt lat="45.39256" lon="6.10347">
        <ele>1193</ele>
        <time>2011-11-13T10:03:03.000Z</time>
      </trkpt>
      <trkpt lat="45.39262" lon="6.10352">
        <ele>1192</ele>
        <time>2011-11-13T10:03:04.000Z</time>
      </trkpt>
      <trkpt lat="45.39276" lon="6.10363">
        <ele>1190</ele>
        <time>2011-11-13T10:03:06.000Z</time>
      </trkpt>
      <trkpt lat="45.39282" lon="6.10369">
        <ele>1189</ele>
        <time>2011-11-13T10:03:07.000Z</time>
      </trkpt>
      <trkpt lat="45.39287" lon="6.10374">
        <ele>1187.8000488281</ele>
        <time>2011-11-13T10:03:08.000Z</time>
      </trkpt>
      <trkpt lat="45.39297" lon="6.10384">
        <ele>1185.8000488281</ele>
        <time>2011-11-13T10:03:10.000Z</time>
      </trkpt>
      <trkpt lat="45.39301" lon="6.10388">
        <ele>1184.4000244141</ele>
        <time>2011-11-13T10:03:11.000Z</time>
      </trkpt>
      <trkpt lat="45.39311" lon="6.10395">
        <ele>1182.4000244141</ele>
        <time>2011-11-13T10:03:13.000Z</time>
      </trkpt>
      <trkpt lat="45.39315" lon="6.10398">
        <ele>1181.4000244141</ele>
        <time>2011-11-13T10:03:14.000Z</time>
      </trkpt>
      <trkpt lat="45.39323" lon="6.10402">
        <ele>1179.4000244141</ele>
        <time>2011-11-13T10:03:16.000Z</time>
      </trkpt>
      <trkpt lat="45.39328" lon="6.10403">
        <ele>1178.4000244141</ele>
        <time>2011-11-13T10:03:17.000Z</time>
      </trkpt>
      <trkpt lat="45.39332" lon="6.1041">
        <ele>1176.8000488281</ele>
        <time>2011-11-13T10:03:19.000Z</time>
      </trkpt>
      <trkpt lat="45.39332" lon="6.10417">
        <ele>1175</ele>
        <time>2011-11-13T10:03:21.000Z</time>
      </trkpt>
      <trkpt lat="45.39329" lon="6.10422">
        <ele>1173.4000244141</ele>
        <time>2011-11-13T10:03:23.000Z</time>
      </trkpt>
      <trkpt lat="45.39328" lon="6.10423">
        <ele>1172</ele>
        <time>2011-11-13T10:03:25.000Z</time>
      </trkpt>
      <trkpt lat="45.39329" lon="6.10423">
        <ele>1171.4000244141</ele>
        <time>2011-11-13T10:03:26.000Z</time>
      </trkpt>
      <trkpt lat="45.3933" lon="6.10421">
        <ele>1169.8000488281</ele>
        <time>2011-11-13T10:03:28.000Z</time>
      </trkpt>
      <trkpt lat="45.39331" lon="6.10421">
        <ele>1169</ele>
        <time>2011-11-13T10:03:29.000Z</time>
      </trkpt>
      <trkpt lat="45.39337" lon="6.10422">
        <ele>1168.4000244141</ele>
        <time>2011-11-13T10:03:30.000Z</time>
      </trkpt>
      <trkpt lat="45.39351" lon="6.10421">
        <ele>1167</ele>
        <time>2011-11-13T10:03:32.000Z</time>
      </trkpt>
      <trkpt lat="45.39359" lon="6.10421">
        <ele>1166</ele>
        <time>2011-11-13T10:03:33.000Z</time>
      </trkpt>
      <trkpt lat="45.39369" lon="6.10421">
        <ele>1165.4000244141</ele>
        <time>2011-11-13T10:03:34.000Z</time>
      </trkpt>
      <trkpt lat="45.39377" lon="6.10421">
        <ele>1164.8000488281</ele>
        <time>2011-11-13T10:03:35.000Z</time>
      </trkpt>
      <trkpt lat="45.39386" lon="6.10419">
        <ele>1164</ele>
        <time>2011-11-13T10:03:36.000Z</time>
      </trkpt>
      <trkpt lat="45.39402" lon="6.10415">
        <ele>1162.4000244141</ele>
        <time>2011-11-13T10:03:38.000Z</time>
      </trkpt>
      <trkpt lat="45.39412" lon="6.10414">
        <ele>1161.4000244141</ele>
        <time>2011-11-13T10:03:40.000Z</time>
      </trkpt>
      <trkpt lat="45.39418" lon="6.10414">
        <ele>1160</ele>
        <time>2011-11-13T10:03:42.000Z</time>
      </trkpt>
      <trkpt lat="45.39422" lon="6.10414">
        <ele>1159</ele>
        <time>2011-11-13T10:03:43.000Z</time>
      </trkpt>
      <trkpt lat="45.39424" lon="6.10415">
        <ele>1158.4000244141</ele>
        <time>2011-11-13T10:03:44.000Z</time>
      </trkpt>
      <trkpt lat="45.39428" lon="6.10414">
        <ele>1156.8000488281</ele>
        <time>2011-11-13T10:03:47.000Z</time>
      </trkpt>
      <trkpt lat="45.39429" lon="6.10413">
        <ele>1156</ele>
        <time>2011-11-13T10:03:49.000Z</time>
      </trkpt>
      <trkpt lat="45.39428" lon="6.10413">
        <ele>1155</ele>
        <time>2011-11-13T10:03:51.000Z</time>
      </trkpt>
      <trkpt lat="45.39429" lon="6.10414">
        <ele>1153</ele>
        <time>2011-11-13T10:04:03.000Z</time>
      </trkpt>
      <trkpt lat="45.39437" lon="6.10412">
        <ele>1152.4000244141</ele>
        <time>2011-11-13T10:04:06.000Z</time>
      </trkpt>
      <trkpt lat="45.3944" lon="6.10412">
        <ele>1152</ele>
        <time>2011-11-13T10:04:07.000Z</time>
      </trkpt>
      <trkpt lat="45.39448" lon="6.1041">
        <ele>1151.4000244141</ele>
        <time>2011-11-13T10:04:09.000Z</time>
      </trkpt>
      <trkpt lat="45.39452" lon="6.10411">
        <ele>1151</ele>
        <time>2011-11-13T10:04:10.000Z</time>
      </trkpt>
      <trkpt lat="45.39472" lon="6.10419">
        <ele>1149.4000244141</ele>
        <time>2011-11-13T10:04:13.000Z</time>
      </trkpt>
      <trkpt lat="45.39482" lon="6.10419">
        <ele>1148.8000488281</ele>
        <time>2011-11-13T10:04:14.000Z</time>
      </trkpt>
      <trkpt lat="45.39494" lon="6.10419">
        <ele>1148</ele>
        <time>2011-11-13T10:04:15.000Z</time>
      </trkpt>
      <trkpt lat="45.39504" lon="6.1042">
        <ele>1147</ele>
        <time>2011-11-13T10:04:16.000Z</time>
      </trkpt>
      <trkpt lat="45.39524" lon="6.10439">
        <ele>1144</ele>
        <time>2011-11-13T10:04:19.000Z</time>
      </trkpt>
      <trkpt lat="45.3953" lon="6.10446">
        <ele>1143</ele>
        <time>2011-11-13T10:04:20.000Z</time>
      </trkpt>
      <trkpt lat="45.39557" lon="6.10449">
        <ele>1140</ele>
        <time>2011-11-13T10:04:23.000Z</time>
      </trkpt>
      <trkpt lat="45.39564" lon="6.10445">
        <ele>1138.8000488281</ele>
        <time>2011-11-13T10:04:24.000Z</time>
      </trkpt>
      <trkpt lat="45.3959" lon="6.10442">
        <ele>1136.8000488281</ele>
        <time>2011-11-13T10:04:27.000Z</time>
      </trkpt>
      <trkpt lat="45.39599" lon="6.10446">
        <ele>1135.8000488281</ele>
        <time>2011-11-13T10:04:28.000Z</time>
      </trkpt>
      <trkpt lat="45.39608" lon="6.1045">
        <ele>1134.8000488281</ele>
        <time>2011-11-13T10:04:29.000Z</time>
      </trkpt>
      <trkpt lat="45.39635" lon="6.10454">
        <ele>1131.4000244141</ele>
        <time>2011-11-13T10:04:32.000Z</time>
      </trkpt>
      <trkpt lat="45.39648" lon="6.10452">
        <ele>1129.4000244141</ele>
        <time>2011-11-13T10:04:34.000Z</time>
      </trkpt>
      <trkpt lat="45.39656" lon="6.10449">
        <ele>1128.4000244141</ele>
        <time>2011-11-13T10:04:35.000Z</time>
      </trkpt>
      <trkpt lat="45.39663" lon="6.10447">
        <ele>1127</ele>
        <time>2011-11-13T10:04:36.000Z</time>
      </trkpt>
      <trkpt lat="45.39677" lon="6.10445">
        <ele>1125</ele>
        <time>2011-11-13T10:04:38.000Z</time>
      </trkpt>
      <trkpt lat="45.39685" lon="6.10447">
        <ele>1124</ele>
        <time>2011-11-13T10:04:39.000Z</time>
      </trkpt>
      <trkpt lat="45.397" lon="6.10446">
        <ele>1121.8000488281</ele>
        <time>2011-11-13T10:04:41.000Z</time>
      </trkpt>
      <trkpt lat="45.39709" lon="6.10449">
        <ele>1120.4000244141</ele>
        <time>2011-11-13T10:04:42.000Z</time>
      </trkpt>
      <trkpt lat="45.39716" lon="6.1045">
        <ele>1119.4000244141</ele>
        <time>2011-11-13T10:04:43.000Z</time>
      </trkpt>
      <trkpt lat="45.39723" lon="6.10449">
        <ele>1118.4000244141</ele>
        <time>2011-11-13T10:04:44.000Z</time>
      </trkpt>
      <trkpt lat="45.39736" lon="6.10447">
        <ele>1116.4000244141</ele>
        <time>2011-11-13T10:04:46.000Z</time>
      </trkpt>
      <trkpt lat="45.39741" lon="6.10444">
        <ele>1115</ele>
        <time>2011-11-13T10:04:47.000Z</time>
      </trkpt>
      <trkpt lat="45.39747" lon="6.10441">
        <ele>1114</ele>
        <time>2011-11-13T10:04:48.000Z</time>
      </trkpt>
      <trkpt lat="45.39752" lon="6.10437">
        <ele>1113</ele>
        <time>2011-11-13T10:04:49.000Z</time>
      </trkpt>
      <trkpt lat="45.39757" lon="6.10431">
        <ele>1111.8000488281</ele>
        <time>2011-11-13T10:04:50.000Z</time>
      </trkpt>
      <trkpt lat="45.39765" lon="6.10427">
        <ele>1110.8000488281</ele>
        <time>2011-11-13T10:04:51.000Z</time>
      </trkpt>
      <trkpt lat="45.39772" lon="6.10427">
        <ele>1109.8000488281</ele>
        <time>2011-11-13T10:04:52.000Z</time>
      </trkpt>
      <trkpt lat="45.39789" lon="6.10428">
        <ele>1107.4000244141</ele>
        <time>2011-11-13T10:04:54.000Z</time>
      </trkpt>
      <trkpt lat="45.39796" lon="6.10426">
        <ele>1106.4000244141</ele>
        <time>2011-11-13T10:04:55.000Z</time>
      </trkpt>
      <trkpt lat="45.39802" lon="6.10427">
        <ele>1105.4000244141</ele>
        <time>2011-11-13T10:04:56.000Z</time>
      </trkpt>
      <trkpt lat="45.39805" lon="6.10423">
        <ele>1104</ele>
        <time>2011-11-13T10:04:57.000Z</time>
      </trkpt>
      <trkpt lat="45.39807" lon="6.10415">
        <ele>1103</ele>
        <time>2011-11-13T10:04:58.000Z</time>
      </trkpt>
      <trkpt lat="45.39808" lon="6.1041">
        <ele>1102</ele>
        <time>2011-11-13T10:04:59.000Z</time>
      </trkpt>
      <trkpt lat="45.39819" lon="6.10401">
        <ele>1100</ele>
        <time>2011-11-13T10:05:01.000Z</time>
      </trkpt>
      <trkpt lat="45.39826" lon="6.10399">
        <ele>1099</ele>
        <time>2011-11-13T10:05:02.000Z</time>
      </trkpt>
      <trkpt lat="45.39832" lon="6.10396">
        <ele>1098</ele>
        <time>2011-11-13T10:05:03.000Z</time>
      </trkpt>
      <trkpt lat="45.39846" lon="6.10399">
        <ele>1095.8000488281</ele>
        <time>2011-11-13T10:05:05.000Z</time>
      </trkpt>
      <trkpt lat="45.39853" lon="6.10404">
        <ele>1094.8000488281</ele>
        <time>2011-11-13T10:05:06.000Z</time>
      </trkpt>
      <trkpt lat="45.39875" lon="6.10416">
        <ele>1091.4000244141</ele>
        <time>2011-11-13T10:05:09.000Z</time>
      </trkpt>
      <trkpt lat="45.39888" lon="6.10421">
        <ele>1089</ele>
        <time>2011-11-13T10:05:11.000Z</time>
      </trkpt>
      <trkpt lat="45.39901" lon="6.10426">
        <ele>1086.8000488281</ele>
        <time>2011-11-13T10:05:13.000Z</time>
      </trkpt>
      <trkpt lat="45.39908" lon="6.10429">
        <ele>1085.4000244141</ele>
        <time>2011-11-13T10:05:14.000Z</time>
      </trkpt>
      <trkpt lat="45.3993" lon="6.10443">
        <ele>1081.8000488281</ele>
        <time>2011-11-13T10:05:17.000Z</time>
      </trkpt>
      <trkpt lat="45.39937" lon="6.10449">
        <ele>1080.8000488281</ele>
        <time>2011-11-13T10:05:18.000Z</time>
      </trkpt>
      <trkpt lat="45.39951" lon="6.10453">
        <ele>1078.4000244141</ele>
        <time>2011-11-13T10:05:20.000Z</time>
      </trkpt>
      <trkpt lat="45.39964" lon="6.10458">
        <ele>1076.4000244141</ele>
        <time>2011-11-13T10:05:22.000Z</time>
      </trkpt>
      <trkpt lat="45.39967" lon="6.10465">
        <ele>1075.4000244141</ele>
        <time>2011-11-13T10:05:23.000Z</time>
      </trkpt>
      <trkpt lat="45.39969" lon="6.10471">
        <ele>1075</ele>
        <time>2011-11-13T10:05:24.000Z</time>
      </trkpt>
      <trkpt lat="45.39973" lon="6.10484">
        <ele>1073.4000244141</ele>
        <time>2011-11-13T10:05:26.000Z</time>
      </trkpt>
      <trkpt lat="45.39975" lon="6.1049">
        <ele>1073</ele>
        <time>2011-11-13T10:05:27.000Z</time>
      </trkpt>
      <trkpt lat="45.39976" lon="6.10497">
        <ele>1072.4000244141</ele>
        <time>2011-11-13T10:05:28.000Z</time>
      </trkpt>
      <trkpt lat="45.39979" lon="6.10509">
        <ele>1071</ele>
        <time>2011-11-13T10:05:32.000Z</time>
      </trkpt>
      <trkpt lat="45.3998" lon="6.1051">
        <ele>1070.8000488281</ele>
        <time>2011-11-13T10:05:33.000Z</time>
      </trkpt>
      <trkpt lat="45.39981" lon="6.10512">
        <ele>1070.8000488281</ele>
        <time>2011-11-13T10:05:34.000Z</time>
      </trkpt>
      <trkpt lat="45.39982" lon="6.10514">
        <ele>1070.8000488281</ele>
        <time>2011-11-13T10:05:35.000Z</time>
      </trkpt>
      <trkpt lat="45.39984" lon="6.10518">
        <ele>1070.4000244141</ele>
        <time>2011-11-13T10:05:37.000Z</time>
      </trkpt>
      <trkpt lat="45.39985" lon="6.10522">
        <ele>1070.4000244141</ele>
        <time>2011-11-13T10:05:39.000Z</time>
      </trkpt>
      <trkpt lat="45.39986" lon="6.10524">
        <ele>1070.4000244141</ele>
        <time>2011-11-13T10:05:40.000Z</time>
      </trkpt>
      <trkpt lat="45.39984" lon="6.10542">
        <ele>1070</ele>
        <time>2011-11-13T10:05:47.000Z</time>
      </trkpt>
      <trkpt lat="45.39983" lon="6.10554">
        <ele>1070</ele>
        <time>2011-11-13T10:05:51.000Z</time>
      </trkpt>
      <trkpt lat="45.39983" lon="6.10558">
        <ele>1070</ele>
        <time>2011-11-13T10:05:52.000Z</time>
      </trkpt>
      <trkpt lat="45.39986" lon="6.10588">
        <ele>1070</ele>
        <time>2011-11-13T10:05:58.000Z</time>
      </trkpt>
      <trkpt lat="45.39987" lon="6.1061">
        <ele>1070</ele>
        <time>2011-11-13T10:06:03.000Z</time>
      </trkpt>
      <trkpt lat="45.39987" lon="6.10614">
        <ele>1070.4000244141</ele>
        <time>2011-11-13T10:06:04.000Z</time>
      </trkpt>
      <trkpt lat="45.39988" lon="6.10622">
        <ele>1070.4000244141</ele>
        <time>2011-11-13T10:06:06.000Z</time>
      </trkpt>
      <trkpt lat="45.39989" lon="6.10632">
        <ele>1071</ele>
        <time>2011-11-13T10:06:08.000Z</time>
      </trkpt>
      <trkpt lat="45.3999" lon="6.10641">
        <ele>1071</ele>
        <time>2011-11-13T10:06:10.000Z</time>
      </trkpt>
      <trkpt lat="45.39991" lon="6.10649">
        <ele>1071.4000244141</ele>
        <time>2011-11-13T10:06:12.000Z</time>
      </trkpt>
      <trkpt lat="45.39993" lon="6.10677">
        <ele>1072.4000244141</ele>
        <time>2011-11-13T10:06:19.000Z</time>
      </trkpt>
      <trkpt lat="45.39994" lon="6.10684">
        <ele>1072.8000488281</ele>
        <time>2011-11-13T10:06:21.000Z</time>
      </trkpt>
      <trkpt lat="45.39994" lon="6.10688">
        <ele>1073</ele>
        <time>2011-11-13T10:06:22.000Z</time>
      </trkpt>
      <trkpt lat="45.39994" lon="6.10693">
        <ele>1073</ele>
        <time>2011-11-13T10:06:23.000Z</time>
      </trkpt>
      <trkpt lat="45.39991" lon="6.10709">
        <ele>1073.4000244141</ele>
        <time>2011-11-13T10:06:27.000Z</time>
      </trkpt>
      <trkpt lat="45.39991" lon="6.10726">
        <ele>1074</ele>
        <time>2011-11-13T10:06:31.000Z</time>
      </trkpt>
      <trkpt lat="45.39988" lon="6.10733">
        <ele>1074.4000244141</ele>
        <time>2011-11-13T10:06:33.000Z</time>
      </trkpt>
      <trkpt lat="45.39988" lon="6.10738">
        <ele>1074.4000244141</ele>
        <time>2011-11-13T10:06:34.000Z</time>
      </trkpt>
      <trkpt lat="45.39987" lon="6.1074">
        <ele>1074.8000488281</ele>
        <time>2011-11-13T10:06:35.000Z</time>
      </trkpt>
      <trkpt lat="45.39985" lon="6.10745">
        <ele>1075</ele>
        <time>2011-11-13T10:06:37.000Z</time>
      </trkpt>
      <trkpt lat="45.39983" lon="6.10748">
        <ele>1075.4000244141</ele>
        <time>2011-11-13T10:06:39.000Z</time>
      </trkpt>
      <trkpt lat="45.39982" lon="6.10751">
        <ele>1075.4000244141</ele>
        <time>2011-11-13T10:06:40.000Z</time>
      </trkpt>
      <trkpt lat="45.39982" lon="6.1076">
        <ele>1075.8000488281</ele>
        <time>2011-11-13T10:06:44.000Z</time>
      </trkpt>
      <trkpt lat="45.3999" lon="6.10767">
        <ele>1076</ele>
        <time>2011-11-13T10:06:49.000Z</time>
      </trkpt>
      <trkpt lat="45.39992" lon="6.10769">
        <ele>1076</ele>
        <time>2011-11-13T10:06:51.000Z</time>
      </trkpt>
      <trkpt lat="45.39996" lon="6.10773">
        <ele>1076</ele>
        <time>2011-11-13T10:06:58.000Z</time>
      </trkpt>
      <trkpt lat="45.39997" lon="6.10773">
        <ele>1076</ele>
        <time>2011-11-13T10:06:59.000Z</time>
      </trkpt>
      <trkpt lat="45.39999" lon="6.10773">
        <ele>1076.4000244141</ele>
        <time>2011-11-13T10:07:01.000Z</time>
      </trkpt>
      <trkpt lat="45.40001" lon="6.10773">
        <ele>1076.8000488281</ele>
        <time>2011-11-13T10:07:03.000Z</time>
      </trkpt>
      <trkpt lat="45.40002" lon="6.10773">
        <ele>1077</ele>
        <time>2011-11-13T10:07:05.000Z</time>
      </trkpt>
      <trkpt lat="45.40004" lon="6.10773">
        <ele>1077.4000244141</ele>
        <time>2011-11-13T10:07:07.000Z</time>
      </trkpt>
      <trkpt lat="45.40006" lon="6.10772">
        <ele>1077.4000244141</ele>
        <time>2011-11-13T10:07:09.000Z</time>
      </trkpt>
      <trkpt lat="45.40011" lon="6.10776">
        <ele>1078</ele>
        <time>2011-11-13T10:07:13.000Z</time>
      </trkpt>
      <trkpt lat="45.40025" lon="6.10783">
        <ele>1078</ele>
        <time>2011-11-13T10:07:21.000Z</time>
      </trkpt>
      <trkpt lat="45.40028" lon="6.10784">
        <ele>1078.4000244141</ele>
        <time>2011-11-13T10:07:25.000Z</time>
      </trkpt>
      <trkpt lat="45.4003" lon="6.10785">
        <ele>1078.8000488281</ele>
        <time>2011-11-13T10:07:27.000Z</time>
      </trkpt>
      <trkpt lat="45.40033" lon="6.10786">
        <ele>1079</ele>
        <time>2011-11-13T10:07:29.000Z</time>
      </trkpt>
      <trkpt lat="45.40035" lon="6.10787">
        <ele>1079.4000244141</ele>
        <time>2011-11-13T10:07:31.000Z</time>
      </trkpt>
      <trkpt lat="45.40036" lon="6.10787">
        <ele>1079.4000244141</ele>
        <time>2011-11-13T10:07:33.000Z</time>
      </trkpt>
      <trkpt lat="45.40038" lon="6.10787">
        <ele>1079.8000488281</ele>
        <time>2011-11-13T10:07:34.000Z</time>
      </trkpt>
      <trkpt lat="45.40049" lon="6.10789">
        <ele>1080</ele>
        <time>2011-11-13T10:07:42.000Z</time>
      </trkpt>
      <trkpt lat="45.40056" lon="6.10792">
        <ele>1080.4000244141</ele>
        <time>2011-11-13T10:07:47.000Z</time>
      </trkpt>
      <trkpt lat="45.40065" lon="6.10797">
        <ele>1080.4000244141</ele>
        <time>2011-11-13T10:07:53.000Z</time>
      </trkpt>
      <trkpt lat="45.4007" lon="6.108">
        <ele>1080.4000244141</ele>
        <time>2011-11-13T10:07:57.000Z</time>
      </trkpt>
      <trkpt lat="45.40078" lon="6.10808">
        <ele>1080.4000244141</ele>
        <time>2011-11-13T10:08:04.000Z</time>
      </trkpt>
      <trkpt lat="45.4008" lon="6.1081">
        <ele>1081</ele>
        <time>2011-11-13T10:08:06.000Z</time>
      </trkpt>
      <trkpt lat="45.40083" lon="6.10811">
        <ele>1081.4000244141</ele>
        <time>2011-11-13T10:08:08.000Z</time>
      </trkpt>
      <trkpt lat="45.40084" lon="6.10812">
        <ele>1081.4000244141</ele>
        <time>2011-11-13T10:08:09.000Z</time>
      </trkpt>
      <trkpt lat="45.40087" lon="6.10814">
        <ele>1081.8000488281</ele>
        <time>2011-11-13T10:08:12.000Z</time>
      </trkpt>
      <trkpt lat="45.40091" lon="6.10818">
        <ele>1082</ele>
        <time>2011-11-13T10:08:15.000Z</time>
      </trkpt>
      <trkpt lat="45.40099" lon="6.10828">
        <ele>1082</ele>
        <time>2011-11-13T10:08:21.000Z</time>
      </trkpt>
      <trkpt lat="45.40105" lon="6.10835">
        <ele>1082.4000244141</ele>
        <time>2011-11-13T10:08:26.000Z</time>
      </trkpt>
      <trkpt lat="45.40107" lon="6.10836">
        <ele>1082.4000244141</ele>
        <time>2011-11-13T10:08:27.000Z</time>
      </trkpt>
      <trkpt lat="45.40111" lon="6.1084">
        <ele>1082.4000244141</ele>
        <time>2011-11-13T10:08:30.000Z</time>
      </trkpt>
      <trkpt lat="45.40114" lon="6.10844">
        <ele>1083</ele>
        <time>2011-11-13T10:08:32.000Z</time>
      </trkpt>
      <trkpt lat="45.40116" lon="6.10848">
        <ele>1083.4000244141</ele>
        <time>2011-11-13T10:08:34.000Z</time>
      </trkpt>
      <trkpt lat="45.40118" lon="6.1085">
        <ele>1083.4000244141</ele>
        <time>2011-11-13T10:08:36.000Z</time>
      </trkpt>
      <trkpt lat="45.4012" lon="6.10853">
        <ele>1083.8000488281</ele>
        <time>2011-11-13T10:08:38.000Z</time>
      </trkpt>
      <trkpt lat="45.40122" lon="6.10854">
        <ele>1083.8000488281</ele>
        <time>2011-11-13T10:08:39.000Z</time>
      </trkpt>
      <trkpt lat="45.40127" lon="6.10852">
        <ele>1084</ele>
        <time>2011-11-13T10:08:46.000Z</time>
      </trkpt>
      <trkpt lat="45.40138" lon="6.10877">
        <ele>1084.4000244141</ele>
        <time>2011-11-13T10:08:53.000Z</time>
      </trkpt>
      <trkpt lat="45.40143" lon="6.10889">
        <ele>1084.4000244141</ele>
        <time>2011-11-13T10:08:57.000Z</time>
      </trkpt>
      <trkpt lat="45.40147" lon="6.109">
        <ele>1084.4000244141</ele>
        <time>2011-11-13T10:09:02.000Z</time>
      </trkpt>
      <trkpt lat="45.40149" lon="6.10904">
        <ele>1084.4000244141</ele>
        <time>2011-11-13T10:09:04.000Z</time>
      </trkpt>
      <trkpt lat="45.4015" lon="6.10908">
        <ele>1084.4000244141</ele>
        <time>2011-11-13T10:09:06.000Z</time>
      </trkpt>
      <trkpt lat="45.4015" lon="6.10915">
        <ele>1084.4000244141</ele>
        <time>2011-11-13T10:09:09.000Z</time>
      </trkpt>
      <trkpt lat="45.4015" lon="6.10919">
        <ele>1084.4000244141</ele>
        <time>2011-11-13T10:09:11.000Z</time>
      </trkpt>
      <trkpt lat="45.40154" lon="6.10927">
        <ele>1084.4000244141</ele>
        <time>2011-11-13T10:09:15.000Z</time>
      </trkpt>
      <trkpt lat="45.40158" lon="6.10938">
        <ele>1084.4000244141</ele>
        <time>2011-11-13T10:09:21.000Z</time>
      </trkpt>
      <trkpt lat="45.40158" lon="6.10947">
        <ele>1084.4000244141</ele>
        <time>2011-11-13T10:09:25.000Z</time>
      </trkpt>
      <trkpt lat="45.40163" lon="6.10956">
        <ele>1084.4000244141</ele>
        <time>2011-11-13T10:09:30.000Z</time>
      </trkpt>
      <trkpt lat="45.40164" lon="6.1096">
        <ele>1084.4000244141</ele>
        <time>2011-11-13T10:09:32.000Z</time>
      </trkpt>
      <trkpt lat="45.40169" lon="6.10969">
        <ele>1084.4000244141</ele>
        <time>2011-11-13T10:09:38.000Z</time>
      </trkpt>
      <trkpt lat="45.40171" lon="6.10984">
        <ele>1084.4000244141</ele>
        <time>2011-11-13T10:09:45.000Z</time>
      </trkpt>
      <trkpt lat="45.40175" lon="6.11001">
        <ele>1084.4000244141</ele>
        <time>2011-11-13T10:09:53.000Z</time>
      </trkpt>
      <trkpt lat="45.40177" lon="6.11009">
        <ele>1084.4000244141</ele>
        <time>2011-11-13T10:09:57.000Z</time>
      </trkpt>
      <trkpt lat="45.40175" lon="6.11015">
        <ele>1084.4000244141</ele>
        <time>2011-11-13T10:10:01.000Z</time>
      </trkpt>
      <trkpt lat="45.40171" lon="6.11023">
        <ele>1084.4000244141</ele>
        <time>2011-11-13T10:10:05.000Z</time>
      </trkpt>
      <trkpt lat="45.40175" lon="6.1103">
        <ele>1084.4000244141</ele>
        <time>2011-11-13T10:10:09.000Z</time>
      </trkpt>
      <trkpt lat="45.40186" lon="6.11047">
        <ele>1084.4000244141</ele>
        <time>2011-11-13T10:10:16.000Z</time>
      </trkpt>
      <trkpt lat="45.40188" lon="6.11054">
        <ele>1084.8000488281</ele>
        <time>2011-11-13T10:10:20.000Z</time>
      </trkpt>
      <trkpt lat="45.40188" lon="6.11058">
        <ele>1085</ele>
        <time>2011-11-13T10:10:22.000Z</time>
      </trkpt>
      <trkpt lat="45.40189" lon="6.1106">
        <ele>1085.4000244141</ele>
        <time>2011-11-13T10:10:23.000Z</time>
      </trkpt>
      <trkpt lat="45.40189" lon="6.11066">
        <ele>1085.8000488281</ele>
        <time>2011-11-13T10:10:26.000Z</time>
      </trkpt>
      <trkpt lat="45.40189" lon="6.11069">
        <ele>1086</ele>
        <time>2011-11-13T10:10:28.000Z</time>
      </trkpt>
      <trkpt lat="45.40189" lon="6.11082">
        <ele>1086</ele>
        <time>2011-11-13T10:10:34.000Z</time>
      </trkpt>
      <trkpt lat="45.40189" lon="6.11088">
        <ele>1086.4000244141</ele>
        <time>2011-11-13T10:10:37.000Z</time>
      </trkpt>
      <trkpt lat="45.4019" lon="6.11099">
        <ele>1086.4000244141</ele>
        <time>2011-11-13T10:10:43.000Z</time>
      </trkpt>
      <trkpt lat="45.4019" lon="6.11101">
        <ele>1086.4000244141</ele>
        <time>2011-11-13T10:10:44.000Z</time>
      </trkpt>
      <trkpt lat="45.40188" lon="6.11113">
        <ele>1086.4000244141</ele>
        <time>2011-11-13T10:10:50.000Z</time>
      </trkpt>
      <trkpt lat="45.4019" lon="6.11129">
        <ele>1086.4000244141</ele>
        <time>2011-11-13T10:10:58.000Z</time>
      </trkpt>
      <trkpt lat="45.40186" lon="6.11149">
        <ele>1086.4000244141</ele>
        <time>2011-11-13T10:11:08.000Z</time>
      </trkpt>
      <trkpt lat="45.40185" lon="6.11165">
        <ele>1086.4000244141</ele>
        <time>2011-11-13T10:11:16.000Z</time>
      </trkpt>
      <trkpt lat="45.40186" lon="6.11167">
        <ele>1086.4000244141</ele>
        <time>2011-11-13T10:11:17.000Z</time>
      </trkpt>
      <trkpt lat="45.40183" lon="6.11178">
        <ele>1086.8000488281</ele>
        <time>2011-11-13T10:11:23.000Z</time>
      </trkpt>
      <trkpt lat="45.40183" lon="6.11189">
        <ele>1086.8000488281</ele>
        <time>2011-11-13T10:11:29.000Z</time>
      </trkpt>
      <trkpt lat="45.40178" lon="6.11198">
        <ele>1086.8000488281</ele>
        <time>2011-11-13T10:11:35.000Z</time>
      </trkpt>
      <trkpt lat="45.40175" lon="6.11213">
        <ele>1087</ele>
        <time>2011-11-13T10:11:43.000Z</time>
      </trkpt>
      <trkpt lat="45.40174" lon="6.11218">
        <ele>1087</ele>
        <time>2011-11-13T10:11:45.000Z</time>
      </trkpt>
      <trkpt lat="45.40174" lon="6.11222">
        <ele>1087.4000244141</ele>
        <time>2011-11-13T10:11:47.000Z</time>
      </trkpt>
      <trkpt lat="45.40174" lon="6.11225">
        <ele>1087.8000488281</ele>
        <time>2011-11-13T10:11:49.000Z</time>
      </trkpt>
      <trkpt lat="45.40174" lon="6.11227">
        <ele>1087.8000488281</ele>
        <time>2011-11-13T10:11:50.000Z</time>
      </trkpt>
      <trkpt lat="45.40173" lon="6.11228">
        <ele>1088</ele>
        <time>2011-11-13T10:11:51.000Z</time>
      </trkpt>
      <trkpt lat="45.40169" lon="6.1124">
        <ele>1088.4000244141</ele>
        <time>2011-11-13T10:11:57.000Z</time>
      </trkpt>
      <trkpt lat="45.40166" lon="6.11245">
        <ele>1088.4000244141</ele>
        <time>2011-11-13T10:12:00.000Z</time>
      </trkpt>
      <trkpt lat="45.40157" lon="6.11261">
        <ele>1088.4000244141</ele>
        <time>2011-11-13T10:12:08.000Z</time>
      </trkpt>
      <trkpt lat="45.40151" lon="6.11266">
        <ele>1088.8000488281</ele>
        <time>2011-11-13T10:12:11.000Z</time>
      </trkpt>
      <trkpt lat="45.40148" lon="6.1127">
        <ele>1089</ele>
        <time>2011-11-13T10:12:13.000Z</time>
      </trkpt>
      <trkpt lat="45.40147" lon="6.11272">
        <ele>1089.4000244141</ele>
        <time>2011-11-13T10:12:14.000Z</time>
      </trkpt>
      <trkpt lat="45.40146" lon="6.11273">
        <ele>1089.4000244141</ele>
        <time>2011-11-13T10:12:15.000Z</time>
      </trkpt>
      <trkpt lat="45.40146" lon="6.11275">
        <ele>1089.4000244141</ele>
        <time>2011-11-13T10:12:16.000Z</time>
      </trkpt>
      <trkpt lat="45.40145" lon="6.11279">
        <ele>1090</ele>
        <time>2011-11-13T10:12:19.000Z</time>
      </trkpt>
      <trkpt lat="45.40143" lon="6.11284">
        <ele>1090</ele>
        <time>2011-11-13T10:12:22.000Z</time>
      </trkpt>
      <trkpt lat="45.40142" lon="6.11286">
        <ele>1090.4000244141</ele>
        <time>2011-11-13T10:12:24.000Z</time>
      </trkpt>
      <trkpt lat="45.40138" lon="6.11291">
        <ele>1090.4000244141</ele>
        <time>2011-11-13T10:12:29.000Z</time>
      </trkpt>
      <trkpt lat="45.40133" lon="6.11293">
        <ele>1090.8000488281</ele>
        <time>2011-11-13T10:12:32.000Z</time>
      </trkpt>
      <trkpt lat="45.40132" lon="6.11294">
        <ele>1091</ele>
        <time>2011-11-13T10:12:33.000Z</time>
      </trkpt>
      <trkpt lat="45.4013" lon="6.11298">
        <ele>1091.4000244141</ele>
        <time>2011-11-13T10:12:36.000Z</time>
      </trkpt>
      <trkpt lat="45.4013" lon="6.113">
        <ele>1091.4000244141</ele>
        <time>2011-11-13T10:12:37.000Z</time>
      </trkpt>
      <trkpt lat="45.40128" lon="6.11304">
        <ele>1092</ele>
        <time>2011-11-13T10:12:40.000Z</time>
      </trkpt>
      <trkpt lat="45.40125" lon="6.11315">
        <ele>1092.4000244141</ele>
        <time>2011-11-13T10:12:46.000Z</time>
      </trkpt>
      <trkpt lat="45.40124" lon="6.11318">
        <ele>1092.4000244141</ele>
        <time>2011-11-13T10:12:47.000Z</time>
      </trkpt>
      <trkpt lat="45.40123" lon="6.11322">
        <ele>1092.4000244141</ele>
        <time>2011-11-13T10:12:49.000Z</time>
      </trkpt>
      <trkpt lat="45.40124" lon="6.11331">
        <ele>1092.4000244141</ele>
        <time>2011-11-13T10:12:53.000Z</time>
      </trkpt>
      <trkpt lat="45.40126" lon="6.11336">
        <ele>1093.4000244141</ele>
        <time>2011-11-13T10:12:56.000Z</time>
      </trkpt>
      <trkpt lat="45.40128" lon="6.1134">
        <ele>1093.4000244141</ele>
        <time>2011-11-13T10:12:58.000Z</time>
      </trkpt>
      <trkpt lat="45.40126" lon="6.11343">
        <ele>1093.8000488281</ele>
        <time>2011-11-13T10:13:00.000Z</time>
      </trkpt>
      <trkpt lat="45.40124" lon="6.11345">
        <ele>1094</ele>
        <time>2011-11-13T10:13:01.000Z</time>
      </trkpt>
      <trkpt lat="45.40124" lon="6.11346">
        <ele>1094</ele>
        <time>2011-11-13T10:13:02.000Z</time>
      </trkpt>
      <trkpt lat="45.4012" lon="6.11348">
        <ele>1094</ele>
        <time>2011-11-13T10:13:04.000Z</time>
      </trkpt>
      <trkpt lat="45.40111" lon="6.1135">
        <ele>1094.4000244141</ele>
        <time>2011-11-13T10:13:09.000Z</time>
      </trkpt>
      <trkpt lat="45.40107" lon="6.11356">
        <ele>1095</ele>
        <time>2011-11-13T10:13:13.000Z</time>
      </trkpt>
      <trkpt lat="45.40106" lon="6.1136">
        <ele>1095.4000244141</ele>
        <time>2011-11-13T10:13:15.000Z</time>
      </trkpt>
      <trkpt lat="45.40104" lon="6.11363">
        <ele>1095.4000244141</ele>
        <time>2011-11-13T10:13:17.000Z</time>
      </trkpt>
      <trkpt lat="45.40102" lon="6.11364">
        <ele>1095.8000488281</ele>
        <time>2011-11-13T10:13:18.000Z</time>
      </trkpt>
      <trkpt lat="45.40101" lon="6.11364">
        <ele>1096</ele>
        <time>2011-11-13T10:13:19.000Z</time>
      </trkpt>
      <trkpt lat="45.40098" lon="6.11365">
        <ele>1096</ele>
        <time>2011-11-13T10:13:21.000Z</time>
      </trkpt>
      <trkpt lat="45.40097" lon="6.11367">
        <ele>1096</ele>
        <time>2011-11-13T10:13:22.000Z</time>
      </trkpt>
      <trkpt lat="45.40092" lon="6.11375">
        <ele>1096.4000244141</ele>
        <time>2011-11-13T10:13:29.000Z</time>
      </trkpt>
      <trkpt lat="45.40089" lon="6.11382">
        <ele>1096.8000488281</ele>
        <time>2011-11-13T10:13:32.000Z</time>
      </trkpt>
      <trkpt lat="45.40088" lon="6.11385">
        <ele>1097</ele>
        <time>2011-11-13T10:13:33.000Z</time>
      </trkpt>
      <trkpt lat="45.40088" lon="6.11388">
        <ele>1097</ele>
        <time>2011-11-13T10:13:34.000Z</time>
      </trkpt>
      <trkpt lat="45.40089" lon="6.11391">
        <ele>1097.4000244141</ele>
        <time>2011-11-13T10:13:35.000Z</time>
      </trkpt>
      <trkpt lat="45.40089" lon="6.11395">
        <ele>1097.8000488281</ele>
        <time>2011-11-13T10:13:37.000Z</time>
      </trkpt>
      <trkpt lat="45.4009" lon="6.11397">
        <ele>1098</ele>
        <time>2011-11-13T10:13:38.000Z</time>
      </trkpt>
      <trkpt lat="45.40091" lon="6.11399">
        <ele>1098</ele>
        <time>2011-11-13T10:13:39.000Z</time>
      </trkpt>
      <trkpt lat="45.40091" lon="6.11401">
        <ele>1098</ele>
        <time>2011-11-13T10:13:41.000Z</time>
      </trkpt>
      <trkpt lat="45.40088" lon="6.1141">
        <ele>1099</ele>
        <time>2011-11-13T10:13:48.000Z</time>
      </trkpt>
      <trkpt lat="45.40087" lon="6.11413">
        <ele>1099.4000244141</ele>
        <time>2011-11-13T10:13:50.000Z</time>
      </trkpt>
      <trkpt lat="45.40087" lon="6.11417">
        <ele>1099.8000488281</ele>
        <time>2011-11-13T10:13:52.000Z</time>
      </trkpt>
      <trkpt lat="45.40087" lon="6.11422">
        <ele>1100</ele>
        <time>2011-11-13T10:13:54.000Z</time>
      </trkpt>
      <trkpt lat="45.40087" lon="6.11426">
        <ele>1100</ele>
        <time>2011-11-13T10:13:56.000Z</time>
      </trkpt>
      <trkpt lat="45.40086" lon="6.11429">
        <ele>1100.4000244141</ele>
        <time>2011-11-13T10:13:58.000Z</time>
      </trkpt>
      <trkpt lat="45.40083" lon="6.11441">
        <ele>1101</ele>
        <time>2011-11-13T10:14:05.000Z</time>
      </trkpt>
      <trkpt lat="45.40081" lon="6.1145">
        <ele>1101</ele>
        <time>2011-11-13T10:14:10.000Z</time>
      </trkpt>
      <trkpt lat="45.40081" lon="6.11452">
        <ele>1101</ele>
        <time>2011-11-13T10:14:11.000Z</time>
      </trkpt>
      <trkpt lat="45.40082" lon="6.11459">
        <ele>1101.4000244141</ele>
        <time>2011-11-13T10:14:14.000Z</time>
      </trkpt>
      <trkpt lat="45.40084" lon="6.11464">
        <ele>1101.8000488281</ele>
        <time>2011-11-13T10:14:16.000Z</time>
      </trkpt>
      <trkpt lat="45.40085" lon="6.11469">
        <ele>1102</ele>
        <time>2011-11-13T10:14:18.000Z</time>
      </trkpt>
      <trkpt lat="45.40086" lon="6.11471">
        <ele>1102</ele>
        <time>2011-11-13T10:14:19.000Z</time>
      </trkpt>
      <trkpt lat="45.40086" lon="6.11472">
        <ele>1102.4000244141</ele>
        <time>2011-11-13T10:14:20.000Z</time>
      </trkpt>
      <trkpt lat="45.40086" lon="6.11476">
        <ele>1102.4000244141</ele>
        <time>2011-11-13T10:14:22.000Z</time>
      </trkpt>
      <trkpt lat="45.40087" lon="6.11479">
        <ele>1102.8000488281</ele>
        <time>2011-11-13T10:14:24.000Z</time>
      </trkpt>
      <trkpt lat="45.40092" lon="6.1149">
        <ele>1103</ele>
        <time>2011-11-13T10:14:31.000Z</time>
      </trkpt>
      <trkpt lat="45.40093" lon="6.11491">
        <ele>1103</ele>
        <time>2011-11-13T10:14:32.000Z</time>
      </trkpt>
      <trkpt lat="45.40104" lon="6.11491">
        <ele>1103.4000244141</ele>
        <time>2011-11-13T10:14:38.000Z</time>
      </trkpt>
      <trkpt lat="45.40107" lon="6.11491">
        <ele>1103.4000244141</ele>
        <time>2011-11-13T10:14:40.000Z</time>
      </trkpt>
      <trkpt lat="45.40109" lon="6.11491">
        <ele>1103.8000488281</ele>
        <time>2011-11-13T10:14:41.000Z</time>
      </trkpt>
      <trkpt lat="45.40115" lon="6.11491">
        <ele>1104.4000244141</ele>
        <time>2011-11-13T10:14:44.000Z</time>
      </trkpt>
      <trkpt lat="45.40117" lon="6.11491">
        <ele>1104.4000244141</ele>
        <time>2011-11-13T10:14:45.000Z</time>
      </trkpt>
      <trkpt lat="45.40121" lon="6.1149">
        <ele>1104.8000488281</ele>
        <time>2011-11-13T10:14:48.000Z</time>
      </trkpt>
      <trkpt lat="45.40128" lon="6.1149">
        <ele>1105</ele>
        <time>2011-11-13T10:14:54.000Z</time>
      </trkpt>
      <trkpt lat="45.40129" lon="6.11488">
        <ele>1105</ele>
        <time>2011-11-13T10:14:56.000Z</time>
      </trkpt>
      <trkpt lat="45.40137" lon="6.11485">
        <ele>1105.4000244141</ele>
        <time>2011-11-13T10:15:02.000Z</time>
      </trkpt>
      <trkpt lat="45.40139" lon="6.11485">
        <ele>1105.4000244141</ele>
        <time>2011-11-13T10:15:03.000Z</time>
      </trkpt>
      <trkpt lat="45.40143" lon="6.11485">
        <ele>1105.4000244141</ele>
        <time>2011-11-13T10:15:06.000Z</time>
      </trkpt>
      <trkpt lat="45.40147" lon="6.11484">
        <ele>1105.4000244141</ele>
        <time>2011-11-13T10:15:10.000Z</time>
      </trkpt>
      <trkpt lat="45.40147" lon="6.11482">
        <ele>1105.4000244141</ele>
        <time>2011-11-13T10:15:12.000Z</time>
      </trkpt>
      <trkpt lat="45.40147" lon="6.11483">
        <ele>1105.4000244141</ele>
        <time>2011-11-13T10:15:15.000Z</time>
      </trkpt>
      <trkpt lat="45.40159" lon="6.11486">
        <ele>1105.4000244141</ele>
        <time>2011-11-13T10:15:21.000Z</time>
      </trkpt>
      <trkpt lat="45.40167" lon="6.11487">
        <ele>1105.4000244141</ele>
        <time>2011-11-13T10:15:23.000Z</time>
      </trkpt>
      <trkpt lat="45.40195" lon="6.11492">
        <ele>1105.4000244141</ele>
        <time>2011-11-13T10:15:31.000Z</time>
      </trkpt>
      <trkpt lat="45.40208" lon="6.11488">
        <ele>1105.4000244141</ele>
        <time>2011-11-13T10:15:37.000Z</time>
      </trkpt>
      <trkpt lat="45.40219" lon="6.11479">
        <ele>1105.4000244141</ele>
        <time>2011-11-13T10:15:42.000Z</time>
      </trkpt>
      <trkpt lat="45.40221" lon="6.11477">
        <ele>1105.8000488281</ele>
        <time>2011-11-13T10:15:43.000Z</time>
      </trkpt>
      <trkpt lat="45.40226" lon="6.11472">
        <ele>1106</ele>
        <time>2011-11-13T10:15:45.000Z</time>
      </trkpt>
      <trkpt lat="45.40232" lon="6.11469">
        <ele>1106.4000244141</ele>
        <time>2011-11-13T10:15:47.000Z</time>
      </trkpt>
      <trkpt lat="45.40239" lon="6.11467">
        <ele>1106.4000244141</ele>
        <time>2011-11-13T10:15:49.000Z</time>
      </trkpt>
      <trkpt lat="45.40246" lon="6.11466">
        <ele>1106.8000488281</ele>
        <time>2011-11-13T10:15:51.000Z</time>
      </trkpt>
      <trkpt lat="45.40263" lon="6.11463">
        <ele>1107</ele>
        <time>2011-11-13T10:15:56.000Z</time>
      </trkpt>
      <trkpt lat="45.40279" lon="6.11455">
        <ele>1107.4000244141</ele>
        <time>2011-11-13T10:16:03.000Z</time>
      </trkpt>
      <trkpt lat="45.4029" lon="6.11453">
        <ele>1107.4000244141</ele>
        <time>2011-11-13T10:16:08.000Z</time>
      </trkpt>
      <trkpt lat="45.403" lon="6.11458">
        <ele>1107.4000244141</ele>
        <time>2011-11-13T10:16:12.000Z</time>
      </trkpt>
      <trkpt lat="45.40321" lon="6.11465">
        <ele>1107.4000244141</ele>
        <time>2011-11-13T10:16:18.000Z</time>
      </trkpt>
      <trkpt lat="45.40337" lon="6.11464">
        <ele>1107.4000244141</ele>
        <time>2011-11-13T10:16:23.000Z</time>
      </trkpt>
      <trkpt lat="45.40352" lon="6.1147">
        <ele>1107.4000244141</ele>
        <time>2011-11-13T10:16:28.000Z</time>
      </trkpt>
      <trkpt lat="45.40362" lon="6.11477">
        <ele>1107.4000244141</ele>
        <time>2011-11-13T10:16:31.000Z</time>
      </trkpt>
      <trkpt lat="45.40381" lon="6.11482">
        <ele>1107.4000244141</ele>
        <time>2011-11-13T10:16:36.000Z</time>
      </trkpt>
      <trkpt lat="45.40398" lon="6.11483">
        <ele>1107.4000244141</ele>
        <time>2011-11-13T10:16:41.000Z</time>
      </trkpt>
      <trkpt lat="45.40412" lon="6.11493">
        <ele>1107.4000244141</ele>
        <time>2011-11-13T10:16:46.000Z</time>
      </trkpt>
      <trkpt lat="45.40415" lon="6.11496">
        <ele>1107.4000244141</ele>
        <time>2011-11-13T10:16:47.000Z</time>
      </trkpt>
      <trkpt lat="45.40428" lon="6.11509">
        <ele>1107.4000244141</ele>
        <time>2011-11-13T10:16:52.000Z</time>
      </trkpt>
      <trkpt lat="45.40441" lon="6.11518">
        <ele>1107.4000244141</ele>
        <time>2011-11-13T10:16:56.000Z</time>
      </trkpt>
      <trkpt lat="45.40452" lon="6.11524">
        <ele>1107.4000244141</ele>
        <time>2011-11-13T10:16:59.000Z</time>
      </trkpt>
      <trkpt lat="45.40481" lon="6.11519">
        <ele>1107.4000244141</ele>
        <time>2011-11-13T10:17:03.000Z</time>
      </trkpt>
      <trkpt lat="45.4049" lon="6.11514">
        <ele>1107</ele>
        <time>2011-11-13T10:17:05.000Z</time>
      </trkpt>
      <trkpt lat="45.40497" lon="6.11514">
        <ele>1106.8000488281</ele>
        <time>2011-11-13T10:17:06.000Z</time>
      </trkpt>
      <trkpt lat="45.40502" lon="6.11517">
        <ele>1106.8000488281</ele>
        <time>2011-11-13T10:17:07.000Z</time>
      </trkpt>
      <trkpt lat="45.40515" lon="6.11517">
        <ele>1106.4000244141</ele>
        <time>2011-11-13T10:17:09.000Z</time>
      </trkpt>
      <trkpt lat="45.40523" lon="6.1152">
        <ele>1106</ele>
        <time>2011-11-13T10:17:11.000Z</time>
      </trkpt>
      <trkpt lat="45.40527" lon="6.11519">
        <ele>1106</ele>
        <time>2011-11-13T10:17:12.000Z</time>
      </trkpt>
      <trkpt lat="45.40538" lon="6.1152">
        <ele>1106</ele>
        <time>2011-11-13T10:17:16.000Z</time>
      </trkpt>
      <trkpt lat="45.40541" lon="6.11518">
        <ele>1105.8000488281</ele>
        <time>2011-11-13T10:17:17.000Z</time>
      </trkpt>
      <trkpt lat="45.40549" lon="6.11513">
        <ele>1106</ele>
        <time>2011-11-13T10:17:20.000Z</time>
      </trkpt>
      <trkpt lat="45.40554" lon="6.11509">
        <ele>1106.4000244141</ele>
        <time>2011-11-13T10:17:22.000Z</time>
      </trkpt>
      <trkpt lat="45.40557" lon="6.11507">
        <ele>1106.4000244141</ele>
        <time>2011-11-13T10:17:23.000Z</time>
      </trkpt>
      <trkpt lat="45.4056" lon="6.11504">
        <ele>1106.4000244141</ele>
        <time>2011-11-13T10:17:24.000Z</time>
      </trkpt>
      <trkpt lat="45.40565" lon="6.11498">
        <ele>1106.8000488281</ele>
        <time>2011-11-13T10:17:26.000Z</time>
      </trkpt>
      <trkpt lat="45.40569" lon="6.11492">
        <ele>1107</ele>
        <time>2011-11-13T10:17:28.000Z</time>
      </trkpt>
      <trkpt lat="45.40582" lon="6.1148">
        <ele>1107.4000244141</ele>
        <time>2011-11-13T10:17:33.000Z</time>
      </trkpt>
      <trkpt lat="45.40594" lon="6.11478">
        <ele>1107.4000244141</ele>
        <time>2011-11-13T10:17:37.000Z</time>
      </trkpt>
      <trkpt lat="45.40605" lon="6.11476">
        <ele>1107.4000244141</ele>
        <time>2011-11-13T10:17:42.000Z</time>
      </trkpt>
      <trkpt lat="45.40615" lon="6.11475">
        <ele>1107.4000244141</ele>
        <time>2011-11-13T10:17:47.000Z</time>
      </trkpt>
      <trkpt lat="45.40618" lon="6.11477">
        <ele>1107.4000244141</ele>
        <time>2011-11-13T10:17:48.000Z</time>
      </trkpt>
      <trkpt lat="45.40632" lon="6.1148">
        <ele>1107.4000244141</ele>
        <time>2011-11-13T10:17:53.000Z</time>
      </trkpt>
      <trkpt lat="45.40643" lon="6.11485">
        <ele>1107.8000488281</ele>
        <time>2011-11-13T10:17:58.000Z</time>
      </trkpt>
      <trkpt lat="45.40655" lon="6.11503">
        <ele>1107.8000488281</ele>
        <time>2011-11-13T10:18:03.000Z</time>
      </trkpt>
      <trkpt lat="45.4066" lon="6.11515">
        <ele>1107.8000488281</ele>
        <time>2011-11-13T10:18:06.000Z</time>
      </trkpt>
      <trkpt lat="45.40666" lon="6.1154">
        <ele>1107.8000488281</ele>
        <time>2011-11-13T10:18:12.000Z</time>
      </trkpt>
      <trkpt lat="45.40666" lon="6.11545">
        <ele>1107.8000488281</ele>
        <time>2011-11-13T10:18:13.000Z</time>
      </trkpt>
      <trkpt lat="45.40666" lon="6.1156">
        <ele>1107.8000488281</ele>
        <time>2011-11-13T10:18:17.000Z</time>
      </trkpt>
      <trkpt lat="45.40664" lon="6.11586">
        <ele>1107.8000488281</ele>
        <time>2011-11-13T10:18:23.000Z</time>
      </trkpt>
      <trkpt lat="45.40655" lon="6.11604">
        <ele>1107.8000488281</ele>
        <time>2011-11-13T10:18:28.000Z</time>
      </trkpt>
      <trkpt lat="45.4065" lon="6.11618">
        <ele>1107.8000488281</ele>
        <time>2011-11-13T10:18:33.000Z</time>
      </trkpt>
      <trkpt lat="45.40644" lon="6.1163">
        <ele>1107.8000488281</ele>
        <time>2011-11-13T10:18:37.000Z</time>
      </trkpt>
      <trkpt lat="45.40639" lon="6.11646">
        <ele>1107.8000488281</ele>
        <time>2011-11-13T10:18:41.000Z</time>
      </trkpt>
      <trkpt lat="45.40636" lon="6.11672">
        <ele>1107.8000488281</ele>
        <time>2011-11-13T10:18:47.000Z</time>
      </trkpt>
      <trkpt lat="45.40638" lon="6.11682">
        <ele>1107.8000488281</ele>
        <time>2011-11-13T10:18:51.000Z</time>
      </trkpt>
      <trkpt lat="45.40638" lon="6.11693">
        <ele>1107.8000488281</ele>
        <time>2011-11-13T10:18:54.000Z</time>
      </trkpt>
      <trkpt lat="45.40646" lon="6.11706">
        <ele>1107.8000488281</ele>
        <time>2011-11-13T10:18:59.000Z</time>
      </trkpt>
      <trkpt lat="45.40656" lon="6.11724">
        <ele>1107.8000488281</ele>
        <time>2011-11-13T10:19:05.000Z</time>
      </trkpt>
      <trkpt lat="45.40663" lon="6.11738">
        <ele>1107.8000488281</ele>
        <time>2011-11-13T10:19:08.000Z</time>
      </trkpt>
      <trkpt lat="45.40669" lon="6.11762">
        <ele>1108</ele>
        <time>2011-11-13T10:19:13.000Z</time>
      </trkpt>
      <trkpt lat="45.40671" lon="6.1177">
        <ele>1108.4000244141</ele>
        <time>2011-11-13T10:19:15.000Z</time>
      </trkpt>
      <trkpt lat="45.40674" lon="6.11777">
        <ele>1108.4000244141</ele>
        <time>2011-11-13T10:19:17.000Z</time>
      </trkpt>
      <trkpt lat="45.40678" lon="6.11783">
        <ele>1108.8000488281</ele>
        <time>2011-11-13T10:19:19.000Z</time>
      </trkpt>
      <trkpt lat="45.40681" lon="6.11788">
        <ele>1109</ele>
        <time>2011-11-13T10:19:21.000Z</time>
      </trkpt>
      <trkpt lat="45.40682" lon="6.11794">
        <ele>1109</ele>
        <time>2011-11-13T10:19:22.000Z</time>
      </trkpt>
      <trkpt lat="45.40691" lon="6.11815">
        <ele>1109.4000244141</ele>
        <time>2011-11-13T10:19:27.000Z</time>
      </trkpt>
      <trkpt lat="45.40698" lon="6.11835">
        <ele>1109.4000244141</ele>
        <time>2011-11-13T10:19:31.000Z</time>
      </trkpt>
      <trkpt lat="45.40702" lon="6.11846">
        <ele>1109.4000244141</ele>
        <time>2011-11-13T10:19:34.000Z</time>
      </trkpt>
      <trkpt lat="45.40701" lon="6.11852">
        <ele>1109.4000244141</ele>
        <time>2011-11-13T10:19:36.000Z</time>
      </trkpt>
      <trkpt lat="45.40699" lon="6.11859">
        <ele>1109.8000488281</ele>
        <time>2011-11-13T10:19:39.000Z</time>
      </trkpt>
      <trkpt lat="45.40707" lon="6.11876">
        <ele>1109.8000488281</ele>
        <time>2011-11-13T10:19:46.000Z</time>
      </trkpt>
      <trkpt lat="45.40707" lon="6.1188">
        <ele>1110</ele>
        <time>2011-11-13T10:19:48.000Z</time>
      </trkpt>
      <trkpt lat="45.40706" lon="6.11884">
        <ele>1110.4000244141</ele>
        <time>2011-11-13T10:19:50.000Z</time>
      </trkpt>
      <trkpt lat="45.40705" lon="6.11888">
        <ele>1110.8000488281</ele>
        <time>2011-11-13T10:19:52.000Z</time>
      </trkpt>
      <trkpt lat="45.40703" lon="6.11892">
        <ele>1111</ele>
        <time>2011-11-13T10:19:54.000Z</time>
      </trkpt>
      <trkpt lat="45.407" lon="6.11894">
        <ele>1111</ele>
        <time>2011-11-13T10:19:56.000Z</time>
      </trkpt>
      <trkpt lat="45.407" lon="6.11896">
        <ele>1111</ele>
        <time>2011-11-13T10:19:57.000Z</time>
      </trkpt>
      <trkpt lat="45.40698" lon="6.11905">
        <ele>1111.4000244141</ele>
        <time>2011-11-13T10:20:01.000Z</time>
      </trkpt>
      <trkpt lat="45.407" lon="6.11912">
        <ele>1111.8000488281</ele>
        <time>2011-11-13T10:20:08.000Z</time>
      </trkpt>
      <trkpt lat="45.407" lon="6.1191">
        <ele>1112</ele>
        <time>2011-11-13T10:20:13.000Z</time>
      </trkpt>
      <trkpt lat="45.4071" lon="6.11912">
        <ele>1112</ele>
        <time>2011-11-13T10:20:19.000Z</time>
      </trkpt>
      <trkpt lat="45.40713" lon="6.11913">
        <ele>1112</ele>
        <time>2011-11-13T10:20:21.000Z</time>
      </trkpt>
      <trkpt lat="45.4072" lon="6.11918">
        <ele>1112</ele>
        <time>2011-11-13T10:20:26.000Z</time>
      </trkpt>
      <trkpt lat="45.40723" lon="6.11922">
        <ele>1112.4000244141</ele>
        <time>2011-11-13T10:20:28.000Z</time>
      </trkpt>
      <trkpt lat="45.40726" lon="6.11925">
        <ele>1112.8000488281</ele>
        <time>2011-11-13T10:20:30.000Z</time>
      </trkpt>
      <trkpt lat="45.40726" lon="6.11925">
        <ele>1113</ele>
        <time>2011-11-13T10:20:32.000Z</time>
      </trkpt>
      <trkpt lat="45.40727" lon="6.11926">
        <ele>1113</ele>
        <time>2011-11-13T10:20:34.000Z</time>
      </trkpt>
      <trkpt lat="45.40732" lon="6.11934">
        <ele>1113.4000244141</ele>
        <time>2011-11-13T10:20:40.000Z</time>
      </trkpt>
      <trkpt lat="45.40733" lon="6.11936">
        <ele>1113.8000488281</ele>
        <time>2011-11-13T10:20:41.000Z</time>
      </trkpt>
      <trkpt lat="45.40734" lon="6.11943">
        <ele>1113.8000488281</ele>
        <time>2011-11-13T10:20:45.000Z</time>
      </trkpt>
      <trkpt lat="45.40737" lon="6.11947">
        <ele>1114</ele>
        <time>2011-11-13T10:20:48.000Z</time>
      </trkpt>
      <trkpt lat="45.40734" lon="6.1195">
        <ele>1114</ele>
        <time>2011-11-13T10:20:55.000Z</time>
      </trkpt>
      <trkpt lat="45.40735" lon="6.11951">
        <ele>1114</ele>
        <time>2011-11-13T10:21:44.000Z</time>
      </trkpt>
      <trkpt lat="45.4075" lon="6.11971">
        <ele>1114</ele>
        <time>2011-11-13T10:21:53.000Z</time>
      </trkpt>
      <trkpt lat="45.40752" lon="6.11975">
        <ele>1114</ele>
        <time>2011-11-13T10:21:55.000Z</time>
      </trkpt>
      <trkpt lat="45.40751" lon="6.11976">
        <ele>1114</ele>
        <time>2011-11-13T10:22:02.000Z</time>
      </trkpt>
      <trkpt lat="45.40758" lon="6.11977">
        <ele>1114</ele>
        <time>2011-11-13T10:22:12.000Z</time>
      </trkpt>
      <trkpt lat="45.40754" lon="6.11983">
        <ele>1114</ele>
        <time>2011-11-13T10:22:20.000Z</time>
      </trkpt>
      <trkpt lat="45.40772" lon="6.11984">
        <ele>1114</ele>
        <time>2011-11-13T10:22:26.000Z</time>
      </trkpt>
      <trkpt lat="45.40793" lon="6.1199">
        <ele>1114</ele>
        <time>2011-11-13T10:22:34.000Z</time>
      </trkpt>
      <trkpt lat="45.40795" lon="6.11991">
        <ele>1114</ele>
        <time>2011-11-13T10:22:40.000Z</time>
      </trkpt>
      <trkpt lat="45.40786" lon="6.11992">
        <ele>1114</ele>
        <time>2011-11-13T10:22:52.000Z</time>
      </trkpt>
      <trkpt lat="45.40771" lon="6.11993">
        <ele>1114</ele>
        <time>2011-11-13T10:22:59.000Z</time>
      </trkpt>
      <trkpt lat="45.40767" lon="6.12002">
        <ele>1114</ele>
        <time>2011-11-13T10:23:05.000Z</time>
      </trkpt>
      <trkpt lat="45.40766" lon="6.12009">
        <ele>1114</ele>
        <time>2011-11-13T10:23:12.000Z</time>
      </trkpt>
      <trkpt lat="45.40768" lon="6.12018">
        <ele>1114.4000244141</ele>
        <time>2011-11-13T10:23:17.000Z</time>
      </trkpt>
      <trkpt lat="45.40767" lon="6.12021">
        <ele>1114.4000244141</ele>
        <time>2011-11-13T10:23:19.000Z</time>
      </trkpt>
      <trkpt lat="45.40766" lon="6.12022">
        <ele>1114.8000488281</ele>
        <time>2011-11-13T10:23:20.000Z</time>
      </trkpt>
      <trkpt lat="45.40768" lon="6.12027">
        <ele>1115</ele>
        <time>2011-11-13T10:23:23.000Z</time>
      </trkpt>
      <trkpt lat="45.4077" lon="6.1203">
        <ele>1115.4000244141</ele>
        <time>2011-11-13T10:23:25.000Z</time>
      </trkpt>
      <trkpt lat="45.40772" lon="6.12032">
        <ele>1115.4000244141</ele>
        <time>2011-11-13T10:23:28.000Z</time>
      </trkpt>
      <trkpt lat="45.40776" lon="6.1204">
        <ele>1115.8000488281</ele>
        <time>2011-11-13T10:23:34.000Z</time>
      </trkpt>
      <trkpt lat="45.40775" lon="6.12042">
        <ele>1115.8000488281</ele>
        <time>2011-11-13T10:23:35.000Z</time>
      </trkpt>
      <trkpt lat="45.40775" lon="6.12043">
        <ele>1116</ele>
        <time>2011-11-13T10:23:36.000Z</time>
      </trkpt>
      <trkpt lat="45.40776" lon="6.12054">
        <ele>1116</ele>
        <time>2011-11-13T10:23:42.000Z</time>
      </trkpt>
      <trkpt lat="45.40774" lon="6.12056">
        <ele>1116</ele>
        <time>2011-11-13T10:23:44.000Z</time>
      </trkpt>
      <trkpt lat="45.40771" lon="6.12062">
        <ele>1116</ele>
        <time>2011-11-13T10:23:48.000Z</time>
      </trkpt>
      <trkpt lat="45.40766" lon="6.12065">
        <ele>1116.4000244141</ele>
        <time>2011-11-13T10:23:51.000Z</time>
      </trkpt>
      <trkpt lat="45.40766" lon="6.12066">
        <ele>1116.4000244141</ele>
        <time>2011-11-13T10:23:53.000Z</time>
      </trkpt>
      <trkpt lat="45.40769" lon="6.12067">
        <ele>1117</ele>
        <time>2011-11-13T10:23:55.000Z</time>
      </trkpt>
      <trkpt lat="45.40772" lon="6.12068">
        <ele>1117</ele>
        <time>2011-11-13T10:23:57.000Z</time>
      </trkpt>
      <trkpt lat="45.40775" lon="6.12072">
        <ele>1117.4000244141</ele>
        <time>2011-11-13T10:23:58.000Z</time>
      </trkpt>
      <trkpt lat="45.40778" lon="6.12075">
        <ele>1117.4000244141</ele>
        <time>2011-11-13T10:23:59.000Z</time>
      </trkpt>
      <trkpt lat="45.4079" lon="6.12094">
        <ele>1117.8000488281</ele>
        <time>2011-11-13T10:24:06.000Z</time>
      </trkpt>
      <trkpt lat="45.40791" lon="6.12094">
        <ele>1117.8000488281</ele>
        <time>2011-11-13T10:24:07.000Z</time>
      </trkpt>
      <trkpt lat="45.40799" lon="6.12097">
        <ele>1118</ele>
        <time>2011-11-13T10:24:11.000Z</time>
      </trkpt>
      <trkpt lat="45.40812" lon="6.12103">
        <ele>1118</ele>
        <time>2011-11-13T10:24:18.000Z</time>
      </trkpt>
      <trkpt lat="45.40814" lon="6.12103">
        <ele>1118</ele>
        <time>2011-11-13T10:24:19.000Z</time>
      </trkpt>
      <trkpt lat="45.40822" lon="6.12106">
        <ele>1118</ele>
        <time>2011-11-13T10:24:25.000Z</time>
      </trkpt>
      <trkpt lat="45.40833" lon="6.12113">
        <ele>1118</ele>
        <time>2011-11-13T10:24:31.000Z</time>
      </trkpt>
      <trkpt lat="45.40846" lon="6.12123">
        <ele>1118</ele>
        <time>2011-11-13T10:24:37.000Z</time>
      </trkpt>
      <trkpt lat="45.4086" lon="6.12132">
        <ele>1118</ele>
        <time>2011-11-13T10:24:43.000Z</time>
      </trkpt>
      <trkpt lat="45.40872" lon="6.12141">
        <ele>1118</ele>
        <time>2011-11-13T10:24:47.000Z</time>
      </trkpt>
      <trkpt lat="45.40885" lon="6.12151">
        <ele>1118</ele>
        <time>2011-11-13T10:24:50.000Z</time>
      </trkpt>
      <trkpt lat="45.40889" lon="6.12156">
        <ele>1117.8000488281</ele>
        <time>2011-11-13T10:24:51.000Z</time>
      </trkpt>
      <trkpt lat="45.40895" lon="6.1216">
        <ele>1117.4000244141</ele>
        <time>2011-11-13T10:24:52.000Z</time>
      </trkpt>
      <trkpt lat="45.409" lon="6.12164">
        <ele>1117</ele>
        <time>2011-11-13T10:24:53.000Z</time>
      </trkpt>
      <trkpt lat="45.40912" lon="6.12175">
        <ele>1117</ele>
        <time>2011-11-13T10:24:54.000Z</time>
      </trkpt>
      <trkpt lat="45.40919" lon="6.12179">
        <ele>1116.4000244141</ele>
        <time>2011-11-13T10:24:55.000Z</time>
      </trkpt>
      <trkpt lat="45.40928" lon="6.12183">
        <ele>1116</ele>
        <time>2011-11-13T10:24:56.000Z</time>
      </trkpt>
      <trkpt lat="45.40935" lon="6.12189">
        <ele>1115.8000488281</ele>
        <time>2011-11-13T10:24:57.000Z</time>
      </trkpt>
      <trkpt lat="45.40943" lon="6.12195">
        <ele>1115.4000244141</ele>
        <time>2011-11-13T10:24:58.000Z</time>
      </trkpt>
      <trkpt lat="45.4095" lon="6.12201">
        <ele>1114.8000488281</ele>
        <time>2011-11-13T10:24:59.000Z</time>
      </trkpt>
      <trkpt lat="45.40959" lon="6.12203">
        <ele>1114</ele>
        <time>2011-11-13T10:25:00.000Z</time>
      </trkpt>
      <trkpt lat="45.40967" lon="6.12206">
        <ele>1113.4000244141</ele>
        <time>2011-11-13T10:25:01.000Z</time>
      </trkpt>
      <trkpt lat="45.40984" lon="6.12203">
        <ele>1112</ele>
        <time>2011-11-13T10:25:03.000Z</time>
      </trkpt>
      <trkpt lat="45.40992" lon="6.12197">
        <ele>1111.4000244141</ele>
        <time>2011-11-13T10:25:04.000Z</time>
      </trkpt>
      <trkpt lat="45.41009" lon="6.12187">
        <ele>1110</ele>
        <time>2011-11-13T10:25:06.000Z</time>
      </trkpt>
      <trkpt lat="45.41017" lon="6.12189">
        <ele>1109.4000244141</ele>
        <time>2011-11-13T10:25:07.000Z</time>
      </trkpt>
      <trkpt lat="45.41024" lon="6.12191">
        <ele>1108.8000488281</ele>
        <time>2011-11-13T10:25:08.000Z</time>
      </trkpt>
      <trkpt lat="45.41029" lon="6.12201">
        <ele>1108</ele>
        <time>2011-11-13T10:25:09.000Z</time>
      </trkpt>
      <trkpt lat="45.41036" lon="6.12225">
        <ele>1106.4000244141</ele>
        <time>2011-11-13T10:25:11.000Z</time>
      </trkpt>
      <trkpt lat="45.41038" lon="6.12237">
        <ele>1105.4000244141</ele>
        <time>2011-11-13T10:25:12.000Z</time>
      </trkpt>
      <trkpt lat="45.41042" lon="6.12251">
        <ele>1104.8000488281</ele>
        <time>2011-11-13T10:25:13.000Z</time>
      </trkpt>
      <trkpt lat="45.41059" lon="6.12256">
        <ele>1103</ele>
        <time>2011-11-13T10:25:15.000Z</time>
      </trkpt>
      <trkpt lat="45.4108" lon="6.12253">
        <ele>1101.4000244141</ele>
        <time>2011-11-13T10:25:17.000Z</time>
      </trkpt>
      <trkpt lat="45.41089" lon="6.12252">
        <ele>1100.8000488281</ele>
        <time>2011-11-13T10:25:18.000Z</time>
      </trkpt>
      <trkpt lat="45.41109" lon="6.12249">
        <ele>1099</ele>
        <time>2011-11-13T10:25:20.000Z</time>
      </trkpt>
      <trkpt lat="45.41117" lon="6.12251">
        <ele>1098</ele>
        <time>2011-11-13T10:25:21.000Z</time>
      </trkpt>
      <trkpt lat="45.41135" lon="6.12254">
        <ele>1096.4000244141</ele>
        <time>2011-11-13T10:25:23.000Z</time>
      </trkpt>
      <trkpt lat="45.41144" lon="6.12258">
        <ele>1095.4000244141</ele>
        <time>2011-11-13T10:25:24.000Z</time>
      </trkpt>
      <trkpt lat="45.41166" lon="6.12262">
        <ele>1093.4000244141</ele>
        <time>2011-11-13T10:25:26.000Z</time>
      </trkpt>
      <trkpt lat="45.41178" lon="6.12264">
        <ele>1092.4000244141</ele>
        <time>2011-11-13T10:25:27.000Z</time>
      </trkpt>
      <trkpt lat="45.41211" lon="6.12259">
        <ele>1089</ele>
        <time>2011-11-13T10:25:30.000Z</time>
      </trkpt>
      <trkpt lat="45.41221" lon="6.12255">
        <ele>1088</ele>
        <time>2011-11-13T10:25:31.000Z</time>
      </trkpt>
      <trkpt lat="45.41255" lon="6.12238">
        <ele>1085</ele>
        <time>2011-11-13T10:25:34.000Z</time>
      </trkpt>
      <trkpt lat="45.41265" lon="6.1223">
        <ele>1084</ele>
        <time>2011-11-13T10:25:35.000Z</time>
      </trkpt>
      <trkpt lat="45.41276" lon="6.12221">
        <ele>1083</ele>
        <time>2011-11-13T10:25:36.000Z</time>
      </trkpt>
      <trkpt lat="45.41285" lon="6.12214">
        <ele>1082</ele>
        <time>2011-11-13T10:25:37.000Z</time>
      </trkpt>
      <trkpt lat="45.41296" lon="6.12212">
        <ele>1081</ele>
        <time>2011-11-13T10:25:38.000Z</time>
      </trkpt>
      <trkpt lat="45.41306" lon="6.12212">
        <ele>1079.8000488281</ele>
        <time>2011-11-13T10:25:39.000Z</time>
      </trkpt>
      <trkpt lat="45.41327" lon="6.12219">
        <ele>1077.4000244141</ele>
        <time>2011-11-13T10:25:41.000Z</time>
      </trkpt>
      <trkpt lat="45.41338" lon="6.12223">
        <ele>1076.4000244141</ele>
        <time>2011-11-13T10:25:42.000Z</time>
      </trkpt>
      <trkpt lat="45.41369" lon="6.12204">
        <ele>1073</ele>
        <time>2011-11-13T10:25:45.000Z</time>
      </trkpt>
      <trkpt lat="45.41378" lon="6.12188">
        <ele>1072</ele>
        <time>2011-11-13T10:25:46.000Z</time>
      </trkpt>
      <trkpt lat="45.41405" lon="6.12162">
        <ele>1068.4000244141</ele>
        <time>2011-11-13T10:25:49.000Z</time>
      </trkpt>
      <trkpt lat="45.41416" lon="6.12155">
        <ele>1067.4000244141</ele>
        <time>2011-11-13T10:25:50.000Z</time>
      </trkpt>
      <trkpt lat="45.41427" lon="6.1215">
        <ele>1066</ele>
        <time>2011-11-13T10:25:51.000Z</time>
      </trkpt>
      <trkpt lat="45.41446" lon="6.12144">
        <ele>1064</ele>
        <time>2011-11-13T10:25:53.000Z</time>
      </trkpt>
      <trkpt lat="45.41457" lon="6.12142">
        <ele>1063</ele>
        <time>2011-11-13T10:25:54.000Z</time>
      </trkpt>
      <trkpt lat="45.41467" lon="6.12139">
        <ele>1062</ele>
        <time>2011-11-13T10:25:55.000Z</time>
      </trkpt>
      <trkpt lat="45.41476" lon="6.12134">
        <ele>1061</ele>
        <time>2011-11-13T10:25:56.000Z</time>
      </trkpt>
      <trkpt lat="45.41485" lon="6.12128">
        <ele>1060</ele>
        <time>2011-11-13T10:25:57.000Z</time>
      </trkpt>
      <trkpt lat="45.41495" lon="6.12118">
        <ele>1059</ele>
        <time>2011-11-13T10:25:58.000Z</time>
      </trkpt>
      <trkpt lat="45.4151" lon="6.12081">
        <ele>1055.4000244141</ele>
        <time>2011-11-13T10:26:01.000Z</time>
      </trkpt>
      <trkpt lat="45.41506" lon="6.12059">
        <ele>1054.4000244141</ele>
        <time>2011-11-13T10:26:02.000Z</time>
      </trkpt>
      <trkpt lat="45.41509" lon="6.12035">
        <ele>1052</ele>
        <time>2011-11-13T10:26:04.000Z</time>
      </trkpt>
      <trkpt lat="45.41514" lon="6.12025">
        <ele>1051</ele>
        <time>2011-11-13T10:26:05.000Z</time>
      </trkpt>
      <trkpt lat="45.4152" lon="6.12016">
        <ele>1050</ele>
        <time>2011-11-13T10:26:06.000Z</time>
      </trkpt>
      <trkpt lat="45.41537" lon="6.12008">
        <ele>1048</ele>
        <time>2011-11-13T10:26:08.000Z</time>
      </trkpt>
      <trkpt lat="45.41546" lon="6.12008">
        <ele>1047</ele>
        <time>2011-11-13T10:26:09.000Z</time>
      </trkpt>
      <trkpt lat="45.41566" lon="6.12006">
        <ele>1044.8000488281</ele>
        <time>2011-11-13T10:26:11.000Z</time>
      </trkpt>
      <trkpt lat="45.41585" lon="6.12005">
        <ele>1042.4000244141</ele>
        <time>2011-11-13T10:26:13.000Z</time>
      </trkpt>
      <trkpt lat="45.41594" lon="6.12004">
        <ele>1041.4000244141</ele>
        <time>2011-11-13T10:26:14.000Z</time>
      </trkpt>
      <trkpt lat="45.41625" lon="6.12002">
        <ele>1038.4000244141</ele>
        <time>2011-11-13T10:26:17.000Z</time>
      </trkpt>
      <trkpt lat="45.41647" lon="6.12">
        <ele>1036</ele>
        <time>2011-11-13T10:26:19.000Z</time>
      </trkpt>
      <trkpt lat="45.41658" lon="6.11999">
        <ele>1035</ele>
        <time>2011-11-13T10:26:20.000Z</time>
      </trkpt>
      <trkpt lat="45.41694" lon="6.12005">
        <ele>1031.4000244141</ele>
        <time>2011-11-13T10:26:23.000Z</time>
      </trkpt>
      <trkpt lat="45.41706" lon="6.12004">
        <ele>1030</ele>
        <time>2011-11-13T10:26:24.000Z</time>
      </trkpt>
      <trkpt lat="45.41718" lon="6.12005">
        <ele>1029</ele>
        <time>2011-11-13T10:26:25.000Z</time>
      </trkpt>
      <trkpt lat="45.41728" lon="6.12003">
        <ele>1027.4000244141</ele>
        <time>2011-11-13T10:26:26.000Z</time>
      </trkpt>
      <trkpt lat="45.41746" lon="6.11997">
        <ele>1024</ele>
        <time>2011-11-13T10:26:29.000Z</time>
      </trkpt>
      <trkpt lat="45.41747" lon="6.11997">
        <ele>1023</ele>
        <time>2011-11-13T10:26:30.000Z</time>
      </trkpt>
      <trkpt lat="45.41748" lon="6.11998">
        <ele>1021.4000244141</ele>
        <time>2011-11-13T10:26:32.000Z</time>
      </trkpt>
      <trkpt lat="45.41745" lon="6.12002">
        <ele>1019.4000244141</ele>
        <time>2011-11-13T10:26:35.000Z</time>
      </trkpt>
      <trkpt lat="45.41744" lon="6.12007">
        <ele>1016.4000244141</ele>
        <time>2011-11-13T10:26:43.000Z</time>
      </trkpt>
      <trkpt lat="45.41746" lon="6.1201">
        <ele>1015</ele>
        <time>2011-11-13T10:26:52.000Z</time>
      </trkpt>
      <trkpt lat="45.41746" lon="6.12012">
        <ele>1014</ele>
        <time>2011-11-13T10:27:27.000Z</time>
      </trkpt>
      <trkpt lat="45.41747" lon="6.12008">
        <ele>1013.5999755859</ele>
        <time>2011-11-13T10:27:28.000Z</time>
      </trkpt>
      <trkpt lat="45.41749" lon="6.12005">
        <ele>1013.4000244141</ele>
        <time>2011-11-13T10:27:29.000Z</time>
      </trkpt>
      <trkpt lat="45.41754" lon="6.11999">
        <ele>1013.200012207</ele>
        <time>2011-11-13T10:27:30.000Z</time>
      </trkpt>
      <trkpt lat="45.4176" lon="6.11997">
        <ele>1012.5999755859</ele>
        <time>2011-11-13T10:27:31.000Z</time>
      </trkpt>
      <trkpt lat="45.41769" lon="6.11993">
        <ele>1012</ele>
        <time>2011-11-13T10:27:32.000Z</time>
      </trkpt>
      <trkpt lat="45.41788" lon="6.11984">
        <ele>1010.200012207</ele>
        <time>2011-11-13T10:27:34.000Z</time>
      </trkpt>
      <trkpt lat="45.41806" lon="6.11971">
        <ele>1008.4000244141</ele>
        <time>2011-11-13T10:27:36.000Z</time>
      </trkpt>
      <trkpt lat="45.41815" lon="6.11972">
        <ele>1007.4000244141</ele>
        <time>2011-11-13T10:27:37.000Z</time>
      </trkpt>
      <trkpt lat="45.41824" lon="6.11973">
        <ele>1006.200012207</ele>
        <time>2011-11-13T10:27:38.000Z</time>
      </trkpt>
      <trkpt lat="45.41833" lon="6.11974">
        <ele>1005</ele>
        <time>2011-11-13T10:27:39.000Z</time>
      </trkpt>
      <trkpt lat="45.41841" lon="6.11977">
        <ele>1003.4000244141</ele>
        <time>2011-11-13T10:27:40.000Z</time>
      </trkpt>
      <trkpt lat="45.41852" lon="6.11985">
        <ele>1000.5999755859</ele>
        <time>2011-11-13T10:27:42.000Z</time>
      </trkpt>
      <trkpt lat="45.41857" lon="6.11989">
        <ele>999.40002441406</ele>
        <time>2011-11-13T10:27:43.000Z</time>
      </trkpt>
      <trkpt lat="45.4186" lon="6.11993">
        <ele>998</ele>
        <time>2011-11-13T10:27:44.000Z</time>
      </trkpt>
      <trkpt lat="45.41864" lon="6.11999">
        <ele>995.40002441406</ele>
        <time>2011-11-13T10:27:46.000Z</time>
      </trkpt>
      <trkpt lat="45.41864" lon="6.12">
        <ele>994.20001220703</ele>
        <time>2011-11-13T10:27:47.000Z</time>
      </trkpt>
      <trkpt lat="45.41864" lon="6.12">
        <ele>992</ele>
        <time>2011-11-13T10:27:49.000Z</time>
      </trkpt>
      <trkpt lat="45.41861" lon="6.11998">
        <ele>991</ele>
        <time>2011-11-13T10:27:50.000Z</time>
      </trkpt>
      <trkpt lat="45.4186" lon="6.11996">
        <ele>990.20001220703</ele>
        <time>2011-11-13T10:27:51.000Z</time>
      </trkpt>
      <trkpt lat="45.41864" lon="6.11996">
        <ele>988.59997558594</ele>
        <time>2011-11-13T10:27:53.000Z</time>
      </trkpt>
      <trkpt lat="45.41868" lon="6.11997">
        <ele>987.40002441406</ele>
        <time>2011-11-13T10:27:55.000Z</time>
      </trkpt>
      <trkpt lat="45.41867" lon="6.11998">
        <ele>984.40002441406</ele>
        <time>2011-11-13T10:28:04.000Z</time>
      </trkpt>
      <trkpt lat="45.41868" lon="6.11998">
        <ele>983.20001220703</ele>
        <time>2011-11-13T10:28:14.000Z</time>
      </trkpt>
      <trkpt lat="45.41872" lon="6.11995">
        <ele>982.40002441406</ele>
        <time>2011-11-13T10:28:50.000Z</time>
      </trkpt>
      <trkpt lat="45.41874" lon="6.11994">
        <ele>982.20001220703</ele>
        <time>2011-11-13T10:28:51.000Z</time>
      </trkpt>
      <trkpt lat="45.41875" lon="6.11992">
        <ele>982</ele>
        <time>2011-11-13T10:28:52.000Z</time>
      </trkpt>
      <trkpt lat="45.41875" lon="6.11988">
        <ele>981.40002441406</ele>
        <time>2011-11-13T10:28:53.000Z</time>
      </trkpt>
      <trkpt lat="45.41878" lon="6.11978">
        <ele>980.40002441406</ele>
        <time>2011-11-13T10:28:55.000Z</time>
      </trkpt>
      <trkpt lat="45.4188" lon="6.11971">
        <ele>979.59997558594</ele>
        <time>2011-11-13T10:28:56.000Z</time>
      </trkpt>
      <trkpt lat="45.4188" lon="6.11965">
        <ele>979</ele>
        <time>2011-11-13T10:28:57.000Z</time>
      </trkpt>
      <trkpt lat="45.41881" lon="6.11952">
        <ele>977.20001220703</ele>
        <time>2011-11-13T10:28:59.000Z</time>
      </trkpt>
      <trkpt lat="45.41882" lon="6.11946">
        <ele>975</ele>
        <time>2011-11-13T10:29:01.000Z</time>
      </trkpt>
      <trkpt lat="45.41882" lon="6.11945">
        <ele>974</ele>
        <time>2011-11-13T10:29:02.000Z</time>
      </trkpt>
      <trkpt lat="45.41882" lon="6.11943">
        <ele>970.40002441406</ele>
        <time>2011-11-13T10:29:05.000Z</time>
      </trkpt>
      <trkpt lat="45.41881" lon="6.11941">
        <ele>968.59997558594</ele>
        <time>2011-11-13T10:29:07.000Z</time>
      </trkpt>
      <trkpt lat="45.4188" lon="6.1194">
        <ele>967.40002441406</ele>
        <time>2011-11-13T10:29:09.000Z</time>
      </trkpt>
      <trkpt lat="45.41878" lon="6.1194">
        <ele>966.20001220703</ele>
        <time>2011-11-13T10:29:11.000Z</time>
      </trkpt>
      <trkpt lat="45.41882" lon="6.11939">
        <ele>963.20001220703</ele>
        <time>2011-11-13T10:29:20.000Z</time>
      </trkpt>
      <trkpt lat="45.41884" lon="6.11929">
        <ele>962</ele>
        <time>2011-11-13T10:29:23.000Z</time>
      </trkpt>
      <trkpt lat="45.41884" lon="6.11915">
        <ele>960.59997558594</ele>
        <time>2011-11-13T10:29:25.000Z</time>
      </trkpt>
      <trkpt lat="45.41882" lon="6.11904">
        <ele>959.20001220703</ele>
        <time>2011-11-13T10:29:27.000Z</time>
      </trkpt>
      <trkpt lat="45.41882" lon="6.11885">
        <ele>956.40002441406</ele>
        <time>2011-11-13T10:29:31.000Z</time>
      </trkpt>
      <trkpt lat="45.41883" lon="6.11878">
        <ele>954.20001220703</ele>
        <time>2011-11-13T10:29:33.000Z</time>
      </trkpt>
      <trkpt lat="45.41884" lon="6.11875">
        <ele>952.40002441406</ele>
        <time>2011-11-13T10:29:35.000Z</time>
      </trkpt>
      <trkpt lat="45.41884" lon="6.11874">
        <ele>950.59997558594</ele>
        <time>2011-11-13T10:29:37.000Z</time>
      </trkpt>
      <trkpt lat="45.41883" lon="6.11875">
        <ele>949.40002441406</ele>
        <time>2011-11-13T10:29:39.000Z</time>
      </trkpt>
      <trkpt lat="45.41884" lon="6.11875">
        <ele>948.40002441406</ele>
        <time>2011-11-13T10:29:41.000Z</time>
      </trkpt>
      <trkpt lat="45.41883" lon="6.11867">
        <ele>946</ele>
        <time>2011-11-13T10:29:49.000Z</time>
      </trkpt>
      <trkpt lat="45.41882" lon="6.11863">
        <ele>945</ele>
        <time>2011-11-13T10:29:54.000Z</time>
      </trkpt>
      <trkpt lat="45.41885" lon="6.11859">
        <ele>944.40002441406</ele>
        <time>2011-11-13T10:29:56.000Z</time>
      </trkpt>
      <trkpt lat="45.41888" lon="6.11855">
        <ele>944</ele>
        <time>2011-11-13T10:29:58.000Z</time>
      </trkpt>
      <trkpt lat="45.41889" lon="6.11854">
        <ele>943.40002441406</ele>
        <time>2011-11-13T10:30:00.000Z</time>
      </trkpt>
      <trkpt lat="45.41888" lon="6.11854">
        <ele>943.40002441406</ele>
        <time>2011-11-13T10:30:02.000Z</time>
      </trkpt>
      <trkpt lat="45.41888" lon="6.11853">
        <ele>942.40002441406</ele>
        <time>2011-11-13T10:30:09.000Z</time>
      </trkpt>
      <trkpt lat="45.41885" lon="6.11851">
        <ele>942</ele>
        <time>2011-11-13T10:30:11.000Z</time>
      </trkpt>
      <trkpt lat="45.41885" lon="6.11846">
        <ele>941.40002441406</ele>
        <time>2011-11-13T10:30:13.000Z</time>
      </trkpt>
      <trkpt lat="45.41885" lon="6.11844">
        <ele>941.20001220703</ele>
        <time>2011-11-13T10:30:14.000Z</time>
      </trkpt>
      <trkpt lat="45.41885" lon="6.11839">
        <ele>940.40002441406</ele>
        <time>2011-11-13T10:30:16.000Z</time>
      </trkpt>
      <trkpt lat="45.41884" lon="6.11836">
        <ele>940</ele>
        <time>2011-11-13T10:30:17.000Z</time>
      </trkpt>
      <trkpt lat="45.41887" lon="6.11826">
        <ele>939</ele>
        <time>2011-11-13T10:30:19.000Z</time>
      </trkpt>
      <trkpt lat="45.41888" lon="6.11819">
        <ele>938</ele>
        <time>2011-11-13T10:30:20.000Z</time>
      </trkpt>
      <trkpt lat="45.41891" lon="6.11807">
        <ele>937</ele>
        <time>2011-11-13T10:30:21.000Z</time>
      </trkpt>
      <trkpt lat="45.41893" lon="6.11802">
        <ele>936</ele>
        <time>2011-11-13T10:30:22.000Z</time>
      </trkpt>
      <trkpt lat="45.41895" lon="6.11799">
        <ele>934.59997558594</ele>
        <time>2011-11-13T10:30:23.000Z</time>
      </trkpt>
      <trkpt lat="45.41905" lon="6.11779">
        <ele>931</ele>
        <time>2011-11-13T10:30:26.000Z</time>
      </trkpt>
      <trkpt lat="45.41905" lon="6.11772">
        <ele>929.59997558594</ele>
        <time>2011-11-13T10:30:27.000Z</time>
      </trkpt>
      <trkpt lat="45.41906" lon="6.11747">
        <ele>926</ele>
        <time>2011-11-13T10:30:30.000Z</time>
      </trkpt>
      <trkpt lat="45.41907" lon="6.1174">
        <ele>924.59997558594</ele>
        <time>2011-11-13T10:30:31.000Z</time>
      </trkpt>
      <trkpt lat="45.4191" lon="6.11732">
        <ele>922.59997558594</ele>
        <time>2011-11-13T10:30:33.000Z</time>
      </trkpt>
      <trkpt lat="45.41912" lon="6.11727">
        <ele>921.40002441406</ele>
        <time>2011-11-13T10:30:34.000Z</time>
      </trkpt>
      <trkpt lat="45.41913" lon="6.1172">
        <ele>919.59997558594</ele>
        <time>2011-11-13T10:30:36.000Z</time>
      </trkpt>
      <trkpt lat="45.41913" lon="6.11714">
        <ele>918.59997558594</ele>
        <time>2011-11-13T10:30:37.000Z</time>
      </trkpt>
      <trkpt lat="45.41912" lon="6.11707">
        <ele>918</ele>
        <time>2011-11-13T10:30:38.000Z</time>
      </trkpt>
      <trkpt lat="45.41906" lon="6.11695">
        <ele>916.20001220703</ele>
        <time>2011-11-13T10:30:40.000Z</time>
      </trkpt>
      <trkpt lat="45.41903" lon="6.1169">
        <ele>915.20001220703</ele>
        <time>2011-11-13T10:30:41.000Z</time>
      </trkpt>
      <trkpt lat="45.41902" lon="6.11687">
        <ele>914.40002441406</ele>
        <time>2011-11-13T10:30:42.000Z</time>
      </trkpt>
      <trkpt lat="45.41904" lon="6.11682">
        <ele>913.40002441406</ele>
        <time>2011-11-13T10:30:43.000Z</time>
      </trkpt>
      <trkpt lat="45.41905" lon="6.11677">
        <ele>912.40002441406</ele>
        <time>2011-11-13T10:30:44.000Z</time>
      </trkpt>
      <trkpt lat="45.41909" lon="6.11663">
        <ele>910.59997558594</ele>
        <time>2011-11-13T10:30:46.000Z</time>
      </trkpt>
      <trkpt lat="45.41908" lon="6.11646">
        <ele>908.40002441406</ele>
        <time>2011-11-13T10:30:48.000Z</time>
      </trkpt>
      <trkpt lat="45.41908" lon="6.11638">
        <ele>907.40002441406</ele>
        <time>2011-11-13T10:30:49.000Z</time>
      </trkpt>
      <trkpt lat="45.41905" lon="6.11627">
        <ele>906.40002441406</ele>
        <time>2011-11-13T10:30:50.000Z</time>
      </trkpt>
      <trkpt lat="45.41904" lon="6.11621">
        <ele>905.20001220703</ele>
        <time>2011-11-13T10:30:51.000Z</time>
      </trkpt>
      <trkpt lat="45.41902" lon="6.11608">
        <ele>902</ele>
        <time>2011-11-13T10:30:54.000Z</time>
      </trkpt>
      <trkpt lat="45.41903" lon="6.11602">
        <ele>900.59997558594</ele>
        <time>2011-11-13T10:30:55.000Z</time>
      </trkpt>
      <trkpt lat="45.41907" lon="6.11594">
        <ele>898.40002441406</ele>
        <time>2011-11-13T10:30:57.000Z</time>
      </trkpt>
      <trkpt lat="45.41906" lon="6.11585">
        <ele>897.40002441406</ele>
        <time>2011-11-13T10:30:58.000Z</time>
      </trkpt>
      <trkpt lat="45.41904" lon="6.1157">
        <ele>895.40002441406</ele>
        <time>2011-11-13T10:31:00.000Z</time>
      </trkpt>
      <trkpt lat="45.41905" lon="6.11564">
        <ele>894.40002441406</ele>
        <time>2011-11-13T10:31:01.000Z</time>
      </trkpt>
      <trkpt lat="45.41907" lon="6.11552">
        <ele>892.40002441406</ele>
        <time>2011-11-13T10:31:03.000Z</time>
      </trkpt>
      <trkpt lat="45.41905" lon="6.1154">
        <ele>890.40002441406</ele>
        <time>2011-11-13T10:31:05.000Z</time>
      </trkpt>
      <trkpt lat="45.41905" lon="6.11535">
        <ele>889.40002441406</ele>
        <time>2011-11-13T10:31:06.000Z</time>
      </trkpt>
      <trkpt lat="45.41905" lon="6.11531">
        <ele>888.40002441406</ele>
        <time>2011-11-13T10:31:07.000Z</time>
      </trkpt>
      <trkpt lat="45.41906" lon="6.11527">
        <ele>887.40002441406</ele>
        <time>2011-11-13T10:31:08.000Z</time>
      </trkpt>
      <trkpt lat="45.4191" lon="6.11519">
        <ele>885.40002441406</ele>
        <time>2011-11-13T10:31:10.000Z</time>
      </trkpt>
      <trkpt lat="45.4191" lon="6.11513">
        <ele>884.40002441406</ele>
        <time>2011-11-13T10:31:11.000Z</time>
      </trkpt>
      <trkpt lat="45.41908" lon="6.11504">
        <ele>882.59997558594</ele>
        <time>2011-11-13T10:31:13.000Z</time>
      </trkpt>
      <trkpt lat="45.41905" lon="6.11497">
        <ele>881.59997558594</ele>
        <time>2011-11-13T10:31:14.000Z</time>
      </trkpt>
      <trkpt lat="45.41901" lon="6.11486">
        <ele>879.59997558594</ele>
        <time>2011-11-13T10:31:16.000Z</time>
      </trkpt>
      <trkpt lat="45.41894" lon="6.11471">
        <ele>877.40002441406</ele>
        <time>2011-11-13T10:31:18.000Z</time>
      </trkpt>
      <trkpt lat="45.41893" lon="6.11457">
        <ele>875.40002441406</ele>
        <time>2011-11-13T10:31:20.000Z</time>
      </trkpt>
      <trkpt lat="45.41892" lon="6.11444">
        <ele>872.59997558594</ele>
        <time>2011-11-13T10:31:22.000Z</time>
      </trkpt>
      <trkpt lat="45.41894" lon="6.11429">
        <ele>870.20001220703</ele>
        <time>2011-11-13T10:31:24.000Z</time>
      </trkpt>
      <trkpt lat="45.41896" lon="6.11422">
        <ele>868.59997558594</ele>
        <time>2011-11-13T10:31:25.000Z</time>
      </trkpt>
      <trkpt lat="45.41899" lon="6.11394">
        <ele>864.40002441406</ele>
        <time>2011-11-13T10:31:28.000Z</time>
      </trkpt>
      <trkpt lat="45.41899" lon="6.11384">
        <ele>863</ele>
        <time>2011-11-13T10:31:29.000Z</time>
      </trkpt>
      <trkpt lat="45.41901" lon="6.11375">
        <ele>861.40002441406</ele>
        <time>2011-11-13T10:31:30.000Z</time>
      </trkpt>
      <trkpt lat="45.419" lon="6.11368">
        <ele>860</ele>
        <time>2011-11-13T10:31:31.000Z</time>
      </trkpt>
      <trkpt lat="45.41902" lon="6.11362">
        <ele>858.20001220703</ele>
        <time>2011-11-13T10:31:32.000Z</time>
      </trkpt>
      <trkpt lat="45.41905" lon="6.11342">
        <ele>855</ele>
        <time>2011-11-13T10:31:34.000Z</time>
      </trkpt>
      <trkpt lat="45.41906" lon="6.11329">
        <ele>853.20001220703</ele>
        <time>2011-11-13T10:31:35.000Z</time>
      </trkpt>
      <trkpt lat="45.41908" lon="6.11316">
        <ele>851.40002441406</ele>
        <time>2011-11-13T10:31:36.000Z</time>
      </trkpt>
      <trkpt lat="45.4191" lon="6.11304">
        <ele>849.40002441406</ele>
        <time>2011-11-13T10:31:37.000Z</time>
      </trkpt>
      <trkpt lat="45.41912" lon="6.11292">
        <ele>847.40002441406</ele>
        <time>2011-11-13T10:31:38.000Z</time>
      </trkpt>
      <trkpt lat="45.41914" lon="6.11281">
        <ele>845.20001220703</ele>
        <time>2011-11-13T10:31:39.000Z</time>
      </trkpt>
      <trkpt lat="45.41917" lon="6.11271">
        <ele>843.20001220703</ele>
        <time>2011-11-13T10:31:40.000Z</time>
      </trkpt>
      <trkpt lat="45.41921" lon="6.11258">
        <ele>839.20001220703</ele>
        <time>2011-11-13T10:31:42.000Z</time>
      </trkpt>
      <trkpt lat="45.41926" lon="6.11254">
        <ele>836</ele>
        <time>2011-11-13T10:31:44.000Z</time>
      </trkpt>
      <trkpt lat="45.41928" lon="6.11255">
        <ele>833</ele>
        <time>2011-11-13T10:31:46.000Z</time>
      </trkpt>
      <trkpt lat="45.41928" lon="6.11256">
        <ele>830.40002441406</ele>
        <time>2011-11-13T10:31:48.000Z</time>
      </trkpt>
      <trkpt lat="45.41927" lon="6.11256">
        <ele>828.40002441406</ele>
        <time>2011-11-13T10:31:50.000Z</time>
      </trkpt>
      <trkpt lat="45.41927" lon="6.11256">
        <ele>826.40002441406</ele>
        <time>2011-11-13T10:31:52.000Z</time>
      </trkpt>
      <trkpt lat="45.41927" lon="6.11256">
        <ele>825.20001220703</ele>
        <time>2011-11-13T10:31:54.000Z</time>
      </trkpt>
      <trkpt lat="45.41928" lon="6.11254">
        <ele>821.20001220703</ele>
        <time>2011-11-13T10:32:05.000Z</time>
      </trkpt>
      <trkpt lat="45.4193" lon="6.11249">
        <ele>820</ele>
        <time>2011-11-13T10:32:15.000Z</time>
      </trkpt>
      <trkpt lat="45.41929" lon="6.11242">
        <ele>819.59997558594</ele>
        <time>2011-11-13T10:32:21.000Z</time>
      </trkpt>
      <trkpt lat="45.41929" lon="6.11242">
        <ele>819.40002441406</ele>
        <time>2011-11-13T10:32:24.000Z</time>
      </trkpt>
      <trkpt lat="45.4193" lon="6.11239">
        <ele>819.40002441406</ele>
        <time>2011-11-13T10:32:26.000Z</time>
      </trkpt>
      <trkpt lat="45.41932" lon="6.11218">
        <ele>818.59997558594</ele>
        <time>2011-11-13T10:32:29.000Z</time>
      </trkpt>
      <trkpt lat="45.41934" lon="6.11209">
        <ele>818.40002441406</ele>
        <time>2011-11-13T10:32:30.000Z</time>
      </trkpt>
      <trkpt lat="45.41936" lon="6.11199">
        <ele>818</ele>
        <time>2011-11-13T10:32:31.000Z</time>
      </trkpt>
      <trkpt lat="45.41936" lon="6.11191">
        <ele>817.40002441406</ele>
        <time>2011-11-13T10:32:32.000Z</time>
      </trkpt>
      <trkpt lat="45.41937" lon="6.11182">
        <ele>816.59997558594</ele>
        <time>2011-11-13T10:32:33.000Z</time>
      </trkpt>
      <trkpt lat="45.41931" lon="6.1117">
        <ele>814.40002441406</ele>
        <time>2011-11-13T10:32:36.000Z</time>
      </trkpt>
      <trkpt lat="45.41927" lon="6.11165">
        <ele>813.59997558594</ele>
        <time>2011-11-13T10:32:37.000Z</time>
      </trkpt>
      <trkpt lat="45.41915" lon="6.11157">
        <ele>812</ele>
        <time>2011-11-13T10:32:39.000Z</time>
      </trkpt>
      <trkpt lat="45.41896" lon="6.11145">
        <ele>809.20001220703</ele>
        <time>2011-11-13T10:32:42.000Z</time>
      </trkpt>
      <trkpt lat="45.41882" lon="6.11138">
        <ele>807</ele>
        <time>2011-11-13T10:32:44.000Z</time>
      </trkpt>
      <trkpt lat="45.41868" lon="6.11132">
        <ele>804.59997558594</ele>
        <time>2011-11-13T10:32:46.000Z</time>
      </trkpt>
      <trkpt lat="45.41862" lon="6.11128">
        <ele>803.59997558594</ele>
        <time>2011-11-13T10:32:47.000Z</time>
      </trkpt>
      <trkpt lat="45.41857" lon="6.11126">
        <ele>802.40002441406</ele>
        <time>2011-11-13T10:32:48.000Z</time>
      </trkpt>
      <trkpt lat="45.41854" lon="6.11126">
        <ele>800.20001220703</ele>
        <time>2011-11-13T10:32:50.000Z</time>
      </trkpt>
      <trkpt lat="45.41848" lon="6.11125">
        <ele>798.20001220703</ele>
        <time>2011-11-13T10:32:52.000Z</time>
      </trkpt>
      <trkpt lat="45.41843" lon="6.11122">
        <ele>797</ele>
        <time>2011-11-13T10:32:53.000Z</time>
      </trkpt>
      <trkpt lat="45.4183" lon="6.11117">
        <ele>795</ele>
        <time>2011-11-13T10:32:55.000Z</time>
      </trkpt>
      <trkpt lat="45.41823" lon="6.11117">
        <ele>794</ele>
        <time>2011-11-13T10:32:56.000Z</time>
      </trkpt>
      <trkpt lat="45.41808" lon="6.11115">
        <ele>791.59997558594</ele>
        <time>2011-11-13T10:32:58.000Z</time>
      </trkpt>
      <trkpt lat="45.41803" lon="6.11113">
        <ele>790.40002441406</ele>
        <time>2011-11-13T10:32:59.000Z</time>
      </trkpt>
      <trkpt lat="45.41799" lon="6.11109">
        <ele>789.40002441406</ele>
        <time>2011-11-13T10:33:00.000Z</time>
      </trkpt>
      <trkpt lat="45.41796" lon="6.111">
        <ele>787</ele>
        <time>2011-11-13T10:33:02.000Z</time>
      </trkpt>
      <trkpt lat="45.41803" lon="6.11095">
        <ele>784.40002441406</ele>
        <time>2011-11-13T10:33:04.000Z</time>
      </trkpt>
      <trkpt lat="45.41811" lon="6.11091">
        <ele>782.20001220703</ele>
        <time>2011-11-13T10:33:06.000Z</time>
      </trkpt>
      <trkpt lat="45.41812" lon="6.11088">
        <ele>780</ele>
        <time>2011-11-13T10:33:08.000Z</time>
      </trkpt>
      <trkpt lat="45.41808" lon="6.11088">
        <ele>778.59997558594</ele>
        <time>2011-11-13T10:33:09.000Z</time>
      </trkpt>
      <trkpt lat="45.41803" lon="6.11091">
        <ele>776.59997558594</ele>
        <time>2011-11-13T10:33:11.000Z</time>
      </trkpt>
      <trkpt lat="45.41796" lon="6.11097">
        <ele>775</ele>
        <time>2011-11-13T10:33:13.000Z</time>
      </trkpt>
      <trkpt lat="45.41792" lon="6.11101">
        <ele>774.20001220703</ele>
        <time>2011-11-13T10:33:14.000Z</time>
      </trkpt>
      <trkpt lat="45.41788" lon="6.11104">
        <ele>773.40002441406</ele>
        <time>2011-11-13T10:33:15.000Z</time>
      </trkpt>
      <trkpt lat="45.41784" lon="6.11108">
        <ele>772.40002441406</ele>
        <time>2011-11-13T10:33:16.000Z</time>
      </trkpt>
      <trkpt lat="45.41773" lon="6.11117">
        <ele>770.59997558594</ele>
        <time>2011-11-13T10:33:18.000Z</time>
      </trkpt>
      <trkpt lat="45.41769" lon="6.11117">
        <ele>770</ele>
        <time>2011-11-13T10:33:19.000Z</time>
      </trkpt>
      <trkpt lat="45.41766" lon="6.11116">
        <ele>769.20001220703</ele>
        <time>2011-11-13T10:33:20.000Z</time>
      </trkpt>
      <trkpt lat="45.41762" lon="6.11105">
        <ele>767.40002441406</ele>
        <time>2011-11-13T10:33:22.000Z</time>
      </trkpt>
      <trkpt lat="45.41762" lon="6.11101">
        <ele>766.59997558594</ele>
        <time>2011-11-13T10:33:23.000Z</time>
      </trkpt>
      <trkpt lat="45.41765" lon="6.11093">
        <ele>764.59997558594</ele>
        <time>2011-11-13T10:33:25.000Z</time>
      </trkpt>
      <trkpt lat="45.41767" lon="6.11089">
        <ele>764</ele>
        <time>2011-11-13T10:33:26.000Z</time>
      </trkpt>
      <trkpt lat="45.4177" lon="6.11084">
        <ele>763</ele>
        <time>2011-11-13T10:33:27.000Z</time>
      </trkpt>
      <trkpt lat="45.4177" lon="6.11075">
        <ele>760.59997558594</ele>
        <time>2011-11-13T10:33:29.000Z</time>
      </trkpt>
      <trkpt lat="45.41773" lon="6.11075">
        <ele>759.59997558594</ele>
        <time>2011-11-13T10:33:30.000Z</time>
      </trkpt>
      <trkpt lat="45.41774" lon="6.11075">
        <ele>759</ele>
        <time>2011-11-13T10:33:31.000Z</time>
      </trkpt>
      <trkpt lat="45.41779" lon="6.11076">
        <ele>757.20001220703</ele>
        <time>2011-11-13T10:33:33.000Z</time>
      </trkpt>
      <trkpt lat="45.41781" lon="6.11075">
        <ele>755.20001220703</ele>
        <time>2011-11-13T10:33:35.000Z</time>
      </trkpt>
      <trkpt lat="45.41785" lon="6.11073">
        <ele>753.40002441406</ele>
        <time>2011-11-13T10:33:37.000Z</time>
      </trkpt>
      <trkpt lat="45.41787" lon="6.11071">
        <ele>752.40002441406</ele>
        <time>2011-11-13T10:33:38.000Z</time>
      </trkpt>
      <trkpt lat="45.41795" lon="6.11065">
        <ele>750.40002441406</ele>
        <time>2011-11-13T10:33:40.000Z</time>
      </trkpt>
      <trkpt lat="45.418" lon="6.11062">
        <ele>748.40002441406</ele>
        <time>2011-11-13T10:33:42.000Z</time>
      </trkpt>
      <trkpt lat="45.41803" lon="6.11061">
        <ele>747.40002441406</ele>
        <time>2011-11-13T10:33:43.000Z</time>
      </trkpt>
      <trkpt lat="45.41804" lon="6.11061">
        <ele>746.40002441406</ele>
        <time>2011-11-13T10:33:44.000Z</time>
      </trkpt>
      <trkpt lat="45.41804" lon="6.1106">
        <ele>744.40002441406</ele>
        <time>2011-11-13T10:33:46.000Z</time>
      </trkpt>
      <trkpt lat="45.41802" lon="6.11059">
        <ele>743.20001220703</ele>
        <time>2011-11-13T10:33:48.000Z</time>
      </trkpt>
      <trkpt lat="45.41802" lon="6.11059">
        <ele>742</ele>
        <time>2011-11-13T10:33:50.000Z</time>
      </trkpt>
      <trkpt lat="45.41802" lon="6.11059">
        <ele>741</ele>
        <time>2011-11-13T10:33:52.000Z</time>
      </trkpt>
      <trkpt lat="45.41804" lon="6.11057">
        <ele>737.40002441406</ele>
        <time>2011-11-13T10:34:10.000Z</time>
      </trkpt>
      <trkpt lat="45.41807" lon="6.11049">
        <ele>736.20001220703</ele>
        <time>2011-11-13T10:34:13.000Z</time>
      </trkpt>
      <trkpt lat="45.41814" lon="6.11045">
        <ele>735</ele>
        <time>2011-11-13T10:34:15.000Z</time>
      </trkpt>
      <trkpt lat="45.41819" lon="6.11041">
        <ele>734.20001220703</ele>
        <time>2011-11-13T10:34:16.000Z</time>
      </trkpt>
      <trkpt lat="45.4183" lon="6.11038">
        <ele>732.40002441406</ele>
        <time>2011-11-13T10:34:18.000Z</time>
      </trkpt>
      <trkpt lat="45.41833" lon="6.11035">
        <ele>731.20001220703</ele>
        <time>2011-11-13T10:34:19.000Z</time>
      </trkpt>
      <trkpt lat="45.4183" lon="6.11027">
        <ele>728.59997558594</ele>
        <time>2011-11-13T10:34:21.000Z</time>
      </trkpt>
      <trkpt lat="45.41825" lon="6.11018">
        <ele>726.40002441406</ele>
        <time>2011-11-13T10:34:23.000Z</time>
      </trkpt>
      <trkpt lat="45.41826" lon="6.11012">
        <ele>724.20001220703</ele>
        <time>2011-11-13T10:34:25.000Z</time>
      </trkpt>
      <trkpt lat="45.41827" lon="6.1101">
        <ele>723</ele>
        <time>2011-11-13T10:34:26.000Z</time>
      </trkpt>
      <trkpt lat="45.41833" lon="6.11009">
        <ele>721</ele>
        <time>2011-11-13T10:34:28.000Z</time>
      </trkpt>
      <trkpt lat="45.41835" lon="6.11007">
        <ele>719.20001220703</ele>
        <time>2011-11-13T10:34:30.000Z</time>
      </trkpt>
      <trkpt lat="45.41839" lon="6.11004">
        <ele>718.20001220703</ele>
        <time>2011-11-13T10:34:31.000Z</time>
      </trkpt>
      <trkpt lat="45.4184" lon="6.10998">
        <ele>717.40002441406</ele>
        <time>2011-11-13T10:34:32.000Z</time>
      </trkpt>
      <trkpt lat="45.41843" lon="6.10993">
        <ele>716.20001220703</ele>
        <time>2011-11-13T10:34:33.000Z</time>
      </trkpt>
      <trkpt lat="45.41847" lon="6.10988">
        <ele>715</ele>
        <time>2011-11-13T10:34:34.000Z</time>
      </trkpt>
      <trkpt lat="45.41853" lon="6.1098">
        <ele>712.59997558594</ele>
        <time>2011-11-13T10:34:36.000Z</time>
      </trkpt>
      <trkpt lat="45.41854" lon="6.10975">
        <ele>711.40002441406</ele>
        <time>2011-11-13T10:34:37.000Z</time>
      </trkpt>
      <trkpt lat="45.41855" lon="6.10966">
        <ele>708.59997558594</ele>
        <time>2011-11-13T10:34:39.000Z</time>
      </trkpt>
      <trkpt lat="45.4186" lon="6.1096">
        <ele>707.40002441406</ele>
        <time>2011-11-13T10:34:40.000Z</time>
      </trkpt>
      <trkpt lat="45.41862" lon="6.10958">
        <ele>706</ele>
        <time>2011-11-13T10:34:41.000Z</time>
      </trkpt>
      <trkpt lat="45.41867" lon="6.10954">
        <ele>704.59997558594</ele>
        <time>2011-11-13T10:34:42.000Z</time>
      </trkpt>
      <trkpt lat="45.41872" lon="6.10946">
        <ele>701.40002441406</ele>
        <time>2011-11-13T10:34:45.000Z</time>
      </trkpt>
      <trkpt lat="45.41871" lon="6.10945">
        <ele>700</ele>
        <time>2011-11-13T10:34:47.000Z</time>
      </trkpt>
      <trkpt lat="45.4187" lon="6.10947">
        <ele>698.40002441406</ele>
        <time>2011-11-13T10:34:49.000Z</time>
      </trkpt>
      <trkpt lat="45.41872" lon="6.10945">
        <ele>695.40002441406</ele>
        <time>2011-11-13T10:34:57.000Z</time>
      </trkpt>
      <trkpt lat="45.41876" lon="6.10942">
        <ele>694</ele>
        <time>2011-11-13T10:35:05.000Z</time>
      </trkpt>
      <trkpt lat="45.41878" lon="6.1094">
        <ele>693.40002441406</ele>
        <time>2011-11-13T10:35:13.000Z</time>
      </trkpt>
      <trkpt lat="45.41879" lon="6.10933">
        <ele>693.20001220703</ele>
        <time>2011-11-13T10:35:30.000Z</time>
      </trkpt>
      <trkpt lat="45.41893" lon="6.1091">
        <ele>692.59997558594</ele>
        <time>2011-11-13T10:35:35.000Z</time>
      </trkpt>
      <trkpt lat="45.419" lon="6.10894">
        <ele>692.20001220703</ele>
        <time>2011-11-13T10:35:37.000Z</time>
      </trkpt>
      <trkpt lat="45.41902" lon="6.10883">
        <ele>691.59997558594</ele>
        <time>2011-11-13T10:35:38.000Z</time>
      </trkpt>
      <trkpt lat="45.41906" lon="6.10871">
        <ele>691</ele>
        <time>2011-11-13T10:35:40.000Z</time>
      </trkpt>
      <trkpt lat="45.41917" lon="6.10868">
        <ele>690</ele>
        <time>2011-11-13T10:35:42.000Z</time>
      </trkpt>
      <trkpt lat="45.41922" lon="6.10867">
        <ele>689.40002441406</ele>
        <time>2011-11-13T10:35:43.000Z</time>
      </trkpt>
      <trkpt lat="45.41927" lon="6.10868">
        <ele>688.59997558594</ele>
        <time>2011-11-13T10:35:44.000Z</time>
      </trkpt>
      <trkpt lat="45.41932" lon="6.1086">
        <ele>687.59997558594</ele>
        <time>2011-11-13T10:35:45.000Z</time>
      </trkpt>
      <trkpt lat="45.41937" lon="6.10848">
        <ele>686</ele>
        <time>2011-11-13T10:35:47.000Z</time>
      </trkpt>
      <trkpt lat="45.41944" lon="6.10831">
        <ele>684.40002441406</ele>
        <time>2011-11-13T10:35:49.000Z</time>
      </trkpt>
      <trkpt lat="45.41947" lon="6.10828">
        <ele>683.40002441406</ele>
        <time>2011-11-13T10:35:50.000Z</time>
      </trkpt>
      <trkpt lat="45.41953" lon="6.10817">
        <ele>681.40002441406</ele>
        <time>2011-11-13T10:35:52.000Z</time>
      </trkpt>
      <trkpt lat="45.41958" lon="6.10809">
        <ele>679.40002441406</ele>
        <time>2011-11-13T10:35:54.000Z</time>
      </trkpt>
      <trkpt lat="45.4196" lon="6.10806">
        <ele>677.20001220703</ele>
        <time>2011-11-13T10:35:56.000Z</time>
      </trkpt>
      <trkpt lat="45.41962" lon="6.10804">
        <ele>676.40002441406</ele>
        <time>2011-11-13T10:35:57.000Z</time>
      </trkpt>
      <trkpt lat="45.41947" lon="6.10798">
        <ele>673</ele>
        <time>2011-11-13T10:36:00.000Z</time>
      </trkpt>
      <trkpt lat="45.41945" lon="6.10785">
        <ele>670.40002441406</ele>
        <time>2011-11-13T10:36:02.000Z</time>
      </trkpt>
      <trkpt lat="45.41949" lon="6.1077">
        <ele>668.20001220703</ele>
        <time>2011-11-13T10:36:04.000Z</time>
      </trkpt>
      <trkpt lat="45.41949" lon="6.10752">
        <ele>665.59997558594</ele>
        <time>2011-11-13T10:36:06.000Z</time>
      </trkpt>
      <trkpt lat="45.41948" lon="6.10743">
        <ele>664.40002441406</ele>
        <time>2011-11-13T10:36:07.000Z</time>
      </trkpt>
      <trkpt lat="45.41946" lon="6.10732">
        <ele>662.59997558594</ele>
        <time>2011-11-13T10:36:08.000Z</time>
      </trkpt>
      <trkpt lat="45.41944" lon="6.1072">
        <ele>661.20001220703</ele>
        <time>2011-11-13T10:36:09.000Z</time>
      </trkpt>
      <trkpt lat="45.41943" lon="6.10712">
        <ele>659.40002441406</ele>
        <time>2011-11-13T10:36:10.000Z</time>
      </trkpt>
      <trkpt lat="45.41941" lon="6.10708">
        <ele>657.40002441406</ele>
        <time>2011-11-13T10:36:11.000Z</time>
      </trkpt>
      <trkpt lat="45.41939" lon="6.10698">
        <ele>654.20001220703</ele>
        <time>2011-11-13T10:36:13.000Z</time>
      </trkpt>
      <trkpt lat="45.41937" lon="6.1069">
        <ele>650.59997558594</ele>
        <time>2011-11-13T10:36:15.000Z</time>
      </trkpt>
      <trkpt lat="45.41935" lon="6.10685">
        <ele>647.40002441406</ele>
        <time>2011-11-13T10:36:17.000Z</time>
      </trkpt>
      <trkpt lat="45.41935" lon="6.10674">
        <ele>644.40002441406</ele>
        <time>2011-11-13T10:36:19.000Z</time>
      </trkpt>
      <trkpt lat="45.41934" lon="6.10659">
        <ele>641.40002441406</ele>
        <time>2011-11-13T10:36:21.000Z</time>
      </trkpt>
      <trkpt lat="45.41936" lon="6.1065">
        <ele>638.20001220703</ele>
        <time>2011-11-13T10:36:23.000Z</time>
      </trkpt>
      <trkpt lat="45.41937" lon="6.10648">
        <ele>636.59997558594</ele>
        <time>2011-11-13T10:36:24.000Z</time>
      </trkpt>
      <trkpt lat="45.41937" lon="6.10646">
        <ele>635.40002441406</ele>
        <time>2011-11-13T10:36:25.000Z</time>
      </trkpt>
      <trkpt lat="45.41938" lon="6.10644">
        <ele>634</ele>
        <time>2011-11-13T10:36:26.000Z</time>
      </trkpt>
      <trkpt lat="45.41939" lon="6.10643">
        <ele>632.40002441406</ele>
        <time>2011-11-13T10:36:27.000Z</time>
      </trkpt>
      <trkpt lat="45.4194" lon="6.10641">
        <ele>631.40002441406</ele>
        <time>2011-11-13T10:36:28.000Z</time>
      </trkpt>
      <trkpt lat="45.41938" lon="6.10639">
        <ele>630</ele>
        <time>2011-11-13T10:36:29.000Z</time>
      </trkpt>
      <trkpt lat="45.41937" lon="6.10638">
        <ele>629</ele>
        <time>2011-11-13T10:36:30.000Z</time>
      </trkpt>
      <trkpt lat="45.41935" lon="6.1064">
        <ele>627.40002441406</ele>
        <time>2011-11-13T10:36:31.000Z</time>
      </trkpt>
      <trkpt lat="45.41926" lon="6.10645">
        <ele>625.20001220703</ele>
        <time>2011-11-13T10:36:33.000Z</time>
      </trkpt>
      <trkpt lat="45.41922" lon="6.10648">
        <ele>624</ele>
        <time>2011-11-13T10:36:34.000Z</time>
      </trkpt>
      <trkpt lat="45.41919" lon="6.10649">
        <ele>622.40002441406</ele>
        <time>2011-11-13T10:36:35.000Z</time>
      </trkpt>
      <trkpt lat="45.41917" lon="6.10644">
        <ele>621.40002441406</ele>
        <time>2011-11-13T10:36:36.000Z</time>
      </trkpt>
      <trkpt lat="45.41912" lon="6.10643">
        <ele>619.59997558594</ele>
        <time>2011-11-13T10:36:37.000Z</time>
      </trkpt>
      <trkpt lat="45.41905" lon="6.10635">
        <ele>617</ele>
        <time>2011-11-13T10:36:39.000Z</time>
      </trkpt>
      <trkpt lat="45.41905" lon="6.1062">
        <ele>614.20001220703</ele>
        <time>2011-11-13T10:36:41.000Z</time>
      </trkpt>
      <trkpt lat="45.41906" lon="6.10608">
        <ele>613</ele>
        <time>2011-11-13T10:36:42.000Z</time>
      </trkpt>
      <trkpt lat="45.41901" lon="6.10591">
        <ele>608.40002441406</ele>
        <time>2011-11-13T10:36:45.000Z</time>
      </trkpt>
      <trkpt lat="45.41898" lon="6.10583">
        <ele>607.20001220703</ele>
        <time>2011-11-13T10:36:46.000Z</time>
      </trkpt>
      <trkpt lat="45.41897" lon="6.10578">
        <ele>605.59997558594</ele>
        <time>2011-11-13T10:36:47.000Z</time>
      </trkpt>
      <trkpt lat="45.41902" lon="6.10572">
        <ele>602.59997558594</ele>
        <time>2011-11-13T10:36:49.000Z</time>
      </trkpt>
      <trkpt lat="45.41907" lon="6.1057">
        <ele>600</ele>
        <time>2011-11-13T10:36:51.000Z</time>
      </trkpt>
      <trkpt lat="45.41908" lon="6.10569">
        <ele>598.40002441406</ele>
        <time>2011-11-13T10:36:52.000Z</time>
      </trkpt>
      <trkpt lat="45.41909" lon="6.10568">
        <ele>594.59997558594</ele>
        <time>2011-11-13T10:36:55.000Z</time>
      </trkpt>
      <trkpt lat="45.41909" lon="6.10568">
        <ele>592.59997558594</ele>
        <time>2011-11-13T10:36:57.000Z</time>
      </trkpt>
      <trkpt lat="45.4191" lon="6.10569">
        <ele>591.20001220703</ele>
        <time>2011-11-13T10:36:59.000Z</time>
      </trkpt>
      <trkpt lat="45.4191" lon="6.1057">
        <ele>589.59997558594</ele>
        <time>2011-11-13T10:37:01.000Z</time>
      </trkpt>
      <trkpt lat="45.41911" lon="6.10566">
        <ele>585.59997558594</ele>
        <time>2011-11-13T10:37:14.000Z</time>
      </trkpt>
      <trkpt lat="45.41912" lon="6.10565">
        <ele>585.20001220703</ele>
        <time>2011-11-13T10:37:17.000Z</time>
      </trkpt>
      <trkpt lat="45.41913" lon="6.10563">
        <ele>584.40002441406</ele>
        <time>2011-11-13T10:37:19.000Z</time>
      </trkpt>
      <trkpt lat="45.41915" lon="6.10563">
        <ele>584</ele>
        <time>2011-11-13T10:37:20.000Z</time>
      </trkpt>
      <trkpt lat="45.41917" lon="6.10562">
        <ele>583.20001220703</ele>
        <time>2011-11-13T10:37:21.000Z</time>
      </trkpt>
      <trkpt lat="45.41919" lon="6.10559">
        <ele>582.20001220703</ele>
        <time>2011-11-13T10:37:22.000Z</time>
      </trkpt>
      <trkpt lat="45.41923" lon="6.10558">
        <ele>581.20001220703</ele>
        <time>2011-11-13T10:37:23.000Z</time>
      </trkpt>
      <trkpt lat="45.41931" lon="6.10557">
        <ele>579</ele>
        <time>2011-11-13T10:37:25.000Z</time>
      </trkpt>
      <trkpt lat="45.41935" lon="6.10557">
        <ele>578</ele>
        <time>2011-11-13T10:37:26.000Z</time>
      </trkpt>
      <trkpt lat="45.41945" lon="6.10552">
        <ele>575.20001220703</ele>
        <time>2011-11-13T10:37:28.000Z</time>
      </trkpt>
      <trkpt lat="45.41951" lon="6.10548">
        <ele>573.40002441406</ele>
        <time>2011-11-13T10:37:29.000Z</time>
      </trkpt>
      <trkpt lat="45.41957" lon="6.10547">
        <ele>572</ele>
        <time>2011-11-13T10:37:30.000Z</time>
      </trkpt>
      <trkpt lat="45.41965" lon="6.10547">
        <ele>570.40002441406</ele>
        <time>2011-11-13T10:37:31.000Z</time>
      </trkpt>
      <trkpt lat="45.41973" lon="6.10548">
        <ele>568.40002441406</ele>
        <time>2011-11-13T10:37:32.000Z</time>
      </trkpt>
      <trkpt lat="45.41979" lon="6.10551">
        <ele>566.59997558594</ele>
        <time>2011-11-13T10:37:33.000Z</time>
      </trkpt>
      <trkpt lat="45.41985" lon="6.10554">
        <ele>565</ele>
        <time>2011-11-13T10:37:34.000Z</time>
      </trkpt>
      <trkpt lat="45.41993" lon="6.10553">
        <ele>563.40002441406</ele>
        <time>2011-11-13T10:37:35.000Z</time>
      </trkpt>
      <trkpt lat="45.41995" lon="6.10548">
        <ele>561.40002441406</ele>
        <time>2011-11-13T10:37:36.000Z</time>
      </trkpt>
      <trkpt lat="45.41994" lon="6.10543">
        <ele>558.20001220703</ele>
        <time>2011-11-13T10:37:38.000Z</time>
      </trkpt>
      <trkpt lat="45.41995" lon="6.10542">
        <ele>556.40002441406</ele>
        <time>2011-11-13T10:37:39.000Z</time>
      </trkpt>
      <trkpt lat="45.41995" lon="6.1054">
        <ele>555</ele>
        <time>2011-11-13T10:37:40.000Z</time>
      </trkpt>
      <trkpt lat="45.41995" lon="6.1054">
        <ele>552</ele>
        <time>2011-11-13T10:37:42.000Z</time>
      </trkpt>
      <trkpt lat="45.41998" lon="6.1054">
        <ele>549</ele>
        <time>2011-11-13T10:37:44.000Z</time>
      </trkpt>
      <trkpt lat="45.42" lon="6.10541">
        <ele>547.40002441406</ele>
        <time>2011-11-13T10:37:45.000Z</time>
      </trkpt>
      <trkpt lat="45.42004" lon="6.1053">
        <ele>543</ele>
        <time>2011-11-13T10:37:48.000Z</time>
      </trkpt>
      <trkpt lat="45.42005" lon="6.10528">
        <ele>541.40002441406</ele>
        <time>2011-11-13T10:37:49.000Z</time>
      </trkpt>
      <trkpt lat="45.42016" lon="6.10516">
        <ele>537</ele>
        <time>2011-11-13T10:37:52.000Z</time>
      </trkpt>
      <trkpt lat="45.42018" lon="6.10513">
        <ele>535.40002441406</ele>
        <time>2011-11-13T10:37:53.000Z</time>
      </trkpt>
      <trkpt lat="45.42021" lon="6.10507">
        <ele>532.40002441406</ele>
        <time>2011-11-13T10:37:55.000Z</time>
      </trkpt>
      <trkpt lat="45.42019" lon="6.10507">
        <ele>528.40002441406</ele>
        <time>2011-11-13T10:37:58.000Z</time>
      </trkpt>
      <trkpt lat="45.42018" lon="6.10511">
        <ele>526.40002441406</ele>
        <time>2011-11-13T10:38:00.000Z</time>
      </trkpt>
      <trkpt lat="45.42021" lon="6.10511">
        <ele>524.59997558594</ele>
        <time>2011-11-13T10:38:02.000Z</time>
      </trkpt>
      <trkpt lat="45.42022" lon="6.10509">
        <ele>523.40002441406</ele>
        <time>2011-11-13T10:38:04.000Z</time>
      </trkpt>
      <trkpt lat="45.4202" lon="6.10506">
        <ele>522.20001220703</ele>
        <time>2011-11-13T10:38:06.000Z</time>
      </trkpt>
      <trkpt lat="45.42023" lon="6.10498">
        <ele>520</ele>
        <time>2011-11-13T10:38:12.000Z</time>
      </trkpt>
      <trkpt lat="45.42024" lon="6.105">
        <ele>518.59997558594</ele>
        <time>2011-11-13T10:38:18.000Z</time>
      </trkpt>
      <trkpt lat="45.42026" lon="6.10503">
        <ele>518</ele>
        <time>2011-11-13T10:38:23.000Z</time>
      </trkpt>
      <trkpt lat="45.42025" lon="6.10502">
        <ele>517.20001220703</ele>
        <time>2011-11-13T10:38:25.000Z</time>
      </trkpt>
      <trkpt lat="45.42025" lon="6.10501">
        <ele>516.59997558594</ele>
        <time>2011-11-13T10:38:26.000Z</time>
      </trkpt>
      <trkpt lat="45.42026" lon="6.10491">
        <ele>515.40002441406</ele>
        <time>2011-11-13T10:38:28.000Z</time>
      </trkpt>
      <trkpt lat="45.42021" lon="6.1048">
        <ele>514.40002441406</ele>
        <time>2011-11-13T10:38:29.000Z</time>
      </trkpt>
      <trkpt lat="45.42018" lon="6.10467">
        <ele>513.40002441406</ele>
        <time>2011-11-13T10:38:30.000Z</time>
      </trkpt>
      <trkpt lat="45.42012" lon="6.10453">
        <ele>512.40002441406</ele>
        <time>2011-11-13T10:38:31.000Z</time>
      </trkpt>
      <trkpt lat="45.42004" lon="6.10439">
        <ele>511.20001220703</ele>
        <time>2011-11-13T10:38:32.000Z</time>
      </trkpt>
      <trkpt lat="45.4199" lon="6.10413">
        <ele>508.60000610352</ele>
        <time>2011-11-13T10:38:34.000Z</time>
      </trkpt>
      <trkpt lat="45.41982" lon="6.10402">
        <ele>507</ele>
        <time>2011-11-13T10:38:35.000Z</time>
      </trkpt>
      <trkpt lat="45.41974" lon="6.10398">
        <ele>505.20001220703</ele>
        <time>2011-11-13T10:38:36.000Z</time>
      </trkpt>
      <trkpt lat="45.41968" lon="6.10392">
        <ele>504</ele>
        <time>2011-11-13T10:38:37.000Z</time>
      </trkpt>
      <trkpt lat="45.4196" lon="6.10378">
        <ele>500.60000610352</ele>
        <time>2011-11-13T10:38:39.000Z</time>
      </trkpt>
      <trkpt lat="45.41951" lon="6.10372">
        <ele>498.60000610352</ele>
        <time>2011-11-13T10:38:40.000Z</time>
      </trkpt>
      <trkpt lat="45.41948" lon="6.10367">
        <ele>497</ele>
        <time>2011-11-13T10:38:41.000Z</time>
      </trkpt>
      <trkpt lat="45.41936" lon="6.10361">
        <ele>493.60000610352</ele>
        <time>2011-11-13T10:38:43.000Z</time>
      </trkpt>
      <trkpt lat="45.4193" lon="6.1036">
        <ele>492</ele>
        <time>2011-11-13T10:38:44.000Z</time>
      </trkpt>
      <trkpt lat="45.41923" lon="6.10357">
        <ele>490.20001220703</ele>
        <time>2011-11-13T10:38:45.000Z</time>
      </trkpt>
      <trkpt lat="45.41919" lon="6.10354">
        <ele>488.60000610352</ele>
        <time>2011-11-13T10:38:46.000Z</time>
      </trkpt>
      <trkpt lat="45.41909" lon="6.10343">
        <ele>485.20001220703</ele>
        <time>2011-11-13T10:38:48.000Z</time>
      </trkpt>
      <trkpt lat="45.41895" lon="6.10324">
        <ele>480.20001220703</ele>
        <time>2011-11-13T10:38:51.000Z</time>
      </trkpt>
      <trkpt lat="45.4188" lon="6.10311">
        <ele>476.60000610352</ele>
        <time>2011-11-13T10:38:53.000Z</time>
      </trkpt>
      <trkpt lat="45.41872" lon="6.10305">
        <ele>475</ele>
        <time>2011-11-13T10:38:54.000Z</time>
      </trkpt>
      <trkpt lat="45.41864" lon="6.10302">
        <ele>473</ele>
        <time>2011-11-13T10:38:55.000Z</time>
      </trkpt>
      <trkpt lat="45.41857" lon="6.10298">
        <ele>471.20001220703</ele>
        <time>2011-11-13T10:38:56.000Z</time>
      </trkpt>
      <trkpt lat="45.41853" lon="6.10286">
        <ele>465.60000610352</ele>
        <time>2011-11-13T10:38:59.000Z</time>
      </trkpt>
      <trkpt lat="45.41853" lon="6.10281">
        <ele>464.20001220703</ele>
        <time>2011-11-13T10:39:00.000Z</time>
      </trkpt>
      <trkpt lat="45.4185" lon="6.10274">
        <ele>460.60000610352</ele>
        <time>2011-11-13T10:39:02.000Z</time>
      </trkpt>
      <trkpt lat="45.41848" lon="6.1027">
        <ele>459</ele>
        <time>2011-11-13T10:39:03.000Z</time>
      </trkpt>
      <trkpt lat="45.41852" lon="6.10259">
        <ele>455.60000610352</ele>
        <time>2011-11-13T10:39:05.000Z</time>
      </trkpt>
      <trkpt lat="45.41851" lon="6.10251">
        <ele>454</ele>
        <time>2011-11-13T10:39:06.000Z</time>
      </trkpt>
      <trkpt lat="45.41854" lon="6.1024">
        <ele>452</ele>
        <time>2011-11-13T10:39:07.000Z</time>
      </trkpt>
      <trkpt lat="45.41857" lon="6.10228">
        <ele>450.20001220703</ele>
        <time>2011-11-13T10:39:08.000Z</time>
      </trkpt>
      <trkpt lat="45.41858" lon="6.10217">
        <ele>448.20001220703</ele>
        <time>2011-11-13T10:39:09.000Z</time>
      </trkpt>
      <trkpt lat="45.41859" lon="6.10207">
        <ele>446.20001220703</ele>
        <time>2011-11-13T10:39:10.000Z</time>
      </trkpt>
      <trkpt lat="45.41865" lon="6.10204">
        <ele>444.20001220703</ele>
        <time>2011-11-13T10:39:11.000Z</time>
      </trkpt>
      <trkpt lat="45.4188" lon="6.10199">
        <ele>440.20001220703</ele>
        <time>2011-11-13T10:39:13.000Z</time>
      </trkpt>
      <trkpt lat="45.41891" lon="6.10188">
        <ele>436.20001220703</ele>
        <time>2011-11-13T10:39:15.000Z</time>
      </trkpt>
      <trkpt lat="45.41895" lon="6.10184">
        <ele>434.20001220703</ele>
        <time>2011-11-13T10:39:16.000Z</time>
      </trkpt>
      <trkpt lat="45.41899" lon="6.10182">
        <ele>432.20001220703</ele>
        <time>2011-11-13T10:39:17.000Z</time>
      </trkpt>
      <trkpt lat="45.41908" lon="6.10178">
        <ele>428.20001220703</ele>
        <time>2011-11-13T10:39:19.000Z</time>
      </trkpt>
      <trkpt lat="45.41911" lon="6.10176">
        <ele>426.60000610352</ele>
        <time>2011-11-13T10:39:20.000Z</time>
      </trkpt>
      <trkpt lat="45.41913" lon="6.10172">
        <ele>424.60000610352</ele>
        <time>2011-11-13T10:39:21.000Z</time>
      </trkpt>
      <trkpt lat="45.41915" lon="6.10167">
        <ele>422.60000610352</ele>
        <time>2011-11-13T10:39:22.000Z</time>
      </trkpt>
      <trkpt lat="45.41916" lon="6.10163">
        <ele>420.60000610352</ele>
        <time>2011-11-13T10:39:23.000Z</time>
      </trkpt>
      <trkpt lat="45.41913" lon="6.10151">
        <ele>416.60000610352</ele>
        <time>2011-11-13T10:39:25.000Z</time>
      </trkpt>
      <trkpt lat="45.41913" lon="6.10135">
        <ele>413</ele>
        <time>2011-11-13T10:39:27.000Z</time>
      </trkpt>
      <trkpt lat="45.41913" lon="6.10127">
        <ele>411</ele>
        <time>2011-11-13T10:39:28.000Z</time>
      </trkpt>
      <trkpt lat="45.41913" lon="6.10119">
        <ele>408.60000610352</ele>
        <time>2011-11-13T10:39:29.000Z</time>
      </trkpt>
      <trkpt lat="45.41918" lon="6.10115">
        <ele>407</ele>
        <time>2011-11-13T10:39:30.000Z</time>
      </trkpt>
      <trkpt lat="45.41921" lon="6.10112">
        <ele>405</ele>
        <time>2011-11-13T10:39:31.000Z</time>
      </trkpt>
      <trkpt lat="45.4192" lon="6.10101">
        <ele>401.20001220703</ele>
        <time>2011-11-13T10:39:33.000Z</time>
      </trkpt>
      <trkpt lat="45.4192" lon="6.10093">
        <ele>399.20001220703</ele>
        <time>2011-11-13T10:39:34.000Z</time>
      </trkpt>
      <trkpt lat="45.41916" lon="6.10073">
        <ele>395.60000610352</ele>
        <time>2011-11-13T10:39:36.000Z</time>
      </trkpt>
      <trkpt lat="45.41921" lon="6.10061">
        <ele>391</ele>
        <time>2011-11-13T10:39:39.000Z</time>
      </trkpt>
      <trkpt lat="45.41925" lon="6.10053">
        <ele>388.60000610352</ele>
        <time>2011-11-13T10:39:41.000Z</time>
      </trkpt>
      <trkpt lat="45.41925" lon="6.10048">
        <ele>386.60000610352</ele>
        <time>2011-11-13T10:39:43.000Z</time>
      </trkpt>
      <trkpt lat="45.41924" lon="6.10042">
        <ele>385</ele>
        <time>2011-11-13T10:39:45.000Z</time>
      </trkpt>
      <trkpt lat="45.41923" lon="6.1004">
        <ele>384.20001220703</ele>
        <time>2011-11-13T10:39:46.000Z</time>
      </trkpt>
      <trkpt lat="45.4192" lon="6.10031">
        <ele>381.20001220703</ele>
        <time>2011-11-13T10:39:52.000Z</time>
      </trkpt>
      <trkpt lat="45.41917" lon="6.10018">
        <ele>380</ele>
        <time>2011-11-13T10:39:57.000Z</time>
      </trkpt>
      <trkpt lat="45.41914" lon="6.10006">
        <ele>379.20001220703</ele>
        <time>2011-11-13T10:40:02.000Z</time>
      </trkpt>
      <trkpt lat="45.41914" lon="6.10003">
        <ele>379</ele>
        <time>2011-11-13T10:40:04.000Z</time>
      </trkpt>
    </trkseg>
  </trk>
</gpx>